<?xml version="1.0" encoding="UTF-8" standalone="no" ?>
<gpx xmlns="http://www.topografix.com/GPX/1/1" xmlns:xsi="http://www.w3.org/2001/XMLSchema-instance" xsi:schemaLocation="http://www.topografix.com/GPX/1/1 http://www.topografix.com/GPX/1/1/gpx.xsd" version="1.1" creator="VisuGPX - https://www.visugpx.com">
  <metadata>
    <name>Tracé actuel: 19 JUIN 2020 12:53</name>
    <desc><![CDATA[ou sont nos belles forêts d'antan  avec le déboisage]]></desc>
  </metadata>
  <trk>
    <name><![CDATA[Tracé actuel: 19 JUIN 2020 12:53]]></name>
    <trkseg>
      <trkpt lat="49.63449" lon="4.98027">
        <ele>187.11</ele>
        <time>2020-06-19T10:53:33Z</time>
      </trkpt>
      <trkpt lat="49.63446" lon="4.98039">
        <ele>190.48</ele>
        <time>2020-06-19T10:53:49Z</time>
      </trkpt>
      <trkpt lat="49.63453" lon="4.98052">
        <ele>186.15</ele>
        <time>2020-06-19T10:54:11Z</time>
      </trkpt>
      <trkpt lat="49.63445" lon="4.98051">
        <ele>187.11</ele>
        <time>2020-06-19T10:54:25Z</time>
      </trkpt>
      <trkpt lat="49.63442" lon="4.98051">
        <ele>185.19</ele>
        <time>2020-06-19T10:54:38Z</time>
      </trkpt>
      <trkpt lat="49.63446" lon="4.98046">
        <ele>184.71</ele>
        <time>2020-06-19T10:54:51Z</time>
      </trkpt>
      <trkpt lat="49.63446" lon="4.98046">
        <ele>185.19</ele>
        <time>2020-06-19T10:54:53Z</time>
      </trkpt>
      <trkpt lat="49.63455" lon="4.98061">
        <ele>187.59</ele>
        <time>2020-06-19T10:55:07Z</time>
      </trkpt>
      <trkpt lat="49.63464" lon="4.98075">
        <ele>186.63</ele>
        <time>2020-06-19T10:55:20Z</time>
      </trkpt>
      <trkpt lat="49.63469" lon="4.98088">
        <ele>186.63</ele>
        <time>2020-06-19T10:55:32Z</time>
      </trkpt>
      <trkpt lat="49.63469" lon="4.98088">
        <ele>186.63</ele>
        <time>2020-06-19T10:55:36Z</time>
      </trkpt>
      <trkpt lat="49.63476" lon="4.98102">
        <ele>188.08</ele>
        <time>2020-06-19T10:55:47Z</time>
      </trkpt>
      <trkpt lat="49.63481" lon="4.98109">
        <ele>189.52</ele>
        <time>2020-06-19T10:55:56Z</time>
      </trkpt>
      <trkpt lat="49.63484" lon="4.98124">
        <ele>191.92</ele>
        <time>2020-06-19T10:56:09Z</time>
      </trkpt>
      <trkpt lat="49.63483" lon="4.98129">
        <ele>191.92</ele>
        <time>2020-06-19T10:56:13Z</time>
      </trkpt>
      <trkpt lat="49.63477" lon="4.98141">
        <ele>193.36</ele>
        <time>2020-06-19T10:56:25Z</time>
      </trkpt>
      <trkpt lat="49.63474" lon="4.98148">
        <ele>193.36</ele>
        <time>2020-06-19T10:56:31Z</time>
      </trkpt>
      <trkpt lat="49.63472" lon="4.98153">
        <ele>194.32</ele>
        <time>2020-06-19T10:56:36Z</time>
      </trkpt>
      <trkpt lat="49.63468" lon="4.9817">
        <ele>197.21</ele>
        <time>2020-06-19T10:56:49Z</time>
      </trkpt>
      <trkpt lat="49.63464" lon="4.98184">
        <ele>199.61</ele>
        <time>2020-06-19T10:57:01Z</time>
      </trkpt>
      <trkpt lat="49.63459" lon="4.98202">
        <ele>200.57</ele>
        <time>2020-06-19T10:57:14Z</time>
      </trkpt>
      <trkpt lat="49.63451" lon="4.98214">
        <ele>201.05</ele>
        <time>2020-06-19T10:57:26Z</time>
      </trkpt>
      <trkpt lat="49.63449" lon="4.98216">
        <ele>200.57</ele>
        <time>2020-06-19T10:57:33Z</time>
      </trkpt>
      <trkpt lat="49.63443" lon="4.9823">
        <ele>202.01</ele>
        <time>2020-06-19T10:57:46Z</time>
      </trkpt>
      <trkpt lat="49.63435" lon="4.98243">
        <ele>203.94</ele>
        <time>2020-06-19T10:57:58Z</time>
      </trkpt>
      <trkpt lat="49.63426" lon="4.98254">
        <ele>202.98</ele>
        <time>2020-06-19T10:58:11Z</time>
      </trkpt>
      <trkpt lat="49.63421" lon="4.98263">
        <ele>203.46</ele>
        <time>2020-06-19T10:58:18Z</time>
      </trkpt>
      <trkpt lat="49.63412" lon="4.98275">
        <ele>205.86</ele>
        <time>2020-06-19T10:58:31Z</time>
      </trkpt>
      <trkpt lat="49.63404" lon="4.98288">
        <ele>208.74</ele>
        <time>2020-06-19T10:58:46Z</time>
      </trkpt>
      <trkpt lat="49.634" lon="4.98293">
        <ele>208.74</ele>
        <time>2020-06-19T10:59:00Z</time>
      </trkpt>
      <trkpt lat="49.63386" lon="4.98305">
        <ele>206.82</ele>
        <time>2020-06-19T10:59:14Z</time>
      </trkpt>
      <trkpt lat="49.63379" lon="4.98313">
        <ele>205.86</ele>
        <time>2020-06-19T10:59:22Z</time>
      </trkpt>
      <trkpt lat="49.63369" lon="4.98321">
        <ele>206.34</ele>
        <time>2020-06-19T10:59:34Z</time>
      </trkpt>
      <trkpt lat="49.63362" lon="4.98329">
        <ele>206.34</ele>
        <time>2020-06-19T10:59:44Z</time>
      </trkpt>
      <trkpt lat="49.63358" lon="4.98335">
        <ele>206.34</ele>
        <time>2020-06-19T10:59:51Z</time>
      </trkpt>
      <trkpt lat="49.63355" lon="4.98336">
        <ele>205.86</ele>
        <time>2020-06-19T10:59:55Z</time>
      </trkpt>
      <trkpt lat="49.63347" lon="4.98345">
        <ele>206.82</ele>
        <time>2020-06-19T11:00:05Z</time>
      </trkpt>
      <trkpt lat="49.63337" lon="4.98351">
        <ele>207.3</ele>
        <time>2020-06-19T11:00:17Z</time>
      </trkpt>
      <trkpt lat="49.63329" lon="4.98352">
        <ele>206.34</ele>
        <time>2020-06-19T11:00:27Z</time>
      </trkpt>
      <trkpt lat="49.63329" lon="4.98353">
        <ele>205.86</ele>
        <time>2020-06-19T11:00:29Z</time>
      </trkpt>
      <trkpt lat="49.63317" lon="4.98351">
        <ele>203.46</ele>
        <time>2020-06-19T11:00:41Z</time>
      </trkpt>
      <trkpt lat="49.63315" lon="4.98352">
        <ele>203.46</ele>
        <time>2020-06-19T11:00:44Z</time>
      </trkpt>
      <trkpt lat="49.63303" lon="4.98351">
        <ele>202.98</ele>
        <time>2020-06-19T11:00:57Z</time>
      </trkpt>
      <trkpt lat="49.63294" lon="4.9835">
        <ele>202.98</ele>
        <time>2020-06-19T11:01:07Z</time>
      </trkpt>
      <trkpt lat="49.63292" lon="4.9835">
        <ele>202.49</ele>
        <time>2020-06-19T11:01:08Z</time>
      </trkpt>
      <trkpt lat="49.63281" lon="4.98354">
        <ele>202.49</ele>
        <time>2020-06-19T11:01:20Z</time>
      </trkpt>
      <trkpt lat="49.63274" lon="4.98354">
        <ele>202.49</ele>
        <time>2020-06-19T11:01:30Z</time>
      </trkpt>
      <trkpt lat="49.63273" lon="4.98354">
        <ele>202.01</ele>
        <time>2020-06-19T11:01:31Z</time>
      </trkpt>
      <trkpt lat="49.63269" lon="4.98354">
        <ele>202.01</ele>
        <time>2020-06-19T11:01:35Z</time>
      </trkpt>
      <trkpt lat="49.63259" lon="4.98352">
        <ele>202.01</ele>
        <time>2020-06-19T11:01:45Z</time>
      </trkpt>
      <trkpt lat="49.63251" lon="4.98348">
        <ele>202.01</ele>
        <time>2020-06-19T11:01:53Z</time>
      </trkpt>
      <trkpt lat="49.63247" lon="4.9835">
        <ele>201.53</ele>
        <time>2020-06-19T11:01:58Z</time>
      </trkpt>
      <trkpt lat="49.6324" lon="4.98348">
        <ele>201.53</ele>
        <time>2020-06-19T11:02:05Z</time>
      </trkpt>
      <trkpt lat="49.63235" lon="4.98349">
        <ele>202.01</ele>
        <time>2020-06-19T11:02:10Z</time>
      </trkpt>
      <trkpt lat="49.63228" lon="4.98348">
        <ele>201.53</ele>
        <time>2020-06-19T11:02:17Z</time>
      </trkpt>
      <trkpt lat="49.63218" lon="4.98349">
        <ele>201.53</ele>
        <time>2020-06-19T11:02:28Z</time>
      </trkpt>
      <trkpt lat="49.63211" lon="4.98349">
        <ele>201.53</ele>
        <time>2020-06-19T11:02:35Z</time>
      </trkpt>
      <trkpt lat="49.63198" lon="4.98347">
        <ele>201.05</ele>
        <time>2020-06-19T11:02:49Z</time>
      </trkpt>
      <trkpt lat="49.63194" lon="4.98347">
        <ele>201.53</ele>
        <time>2020-06-19T11:02:54Z</time>
      </trkpt>
      <trkpt lat="49.63188" lon="4.98352">
        <ele>199.61</ele>
        <time>2020-06-19T11:02:59Z</time>
      </trkpt>
      <trkpt lat="49.63176" lon="4.9835">
        <ele>203.46</ele>
        <time>2020-06-19T11:03:11Z</time>
      </trkpt>
      <trkpt lat="49.63175" lon="4.98349">
        <ele>204.42</ele>
        <time>2020-06-19T11:03:12Z</time>
      </trkpt>
      <trkpt lat="49.6317" lon="4.98345">
        <ele>207.3</ele>
        <time>2020-06-19T11:03:17Z</time>
      </trkpt>
      <trkpt lat="49.63166" lon="4.98348">
        <ele>205.86</ele>
        <time>2020-06-19T11:03:22Z</time>
      </trkpt>
      <trkpt lat="49.6316" lon="4.98348">
        <ele>204.9</ele>
        <time>2020-06-19T11:03:28Z</time>
      </trkpt>
      <trkpt lat="49.63149" lon="4.98345">
        <ele>205.86</ele>
        <time>2020-06-19T11:03:40Z</time>
      </trkpt>
      <trkpt lat="49.63141" lon="4.98344">
        <ele>205.86</ele>
        <time>2020-06-19T11:03:48Z</time>
      </trkpt>
      <trkpt lat="49.63134" lon="4.98345">
        <ele>207.3</ele>
        <time>2020-06-19T11:03:56Z</time>
      </trkpt>
      <trkpt lat="49.63127" lon="4.98344">
        <ele>210.67</ele>
        <time>2020-06-19T11:04:03Z</time>
      </trkpt>
      <trkpt lat="49.6312" lon="4.9834">
        <ele>214.51</ele>
        <time>2020-06-19T11:04:11Z</time>
      </trkpt>
      <trkpt lat="49.63115" lon="4.98337">
        <ele>215.47</ele>
        <time>2020-06-19T11:04:16Z</time>
      </trkpt>
      <trkpt lat="49.63108" lon="4.98335">
        <ele>214.99</ele>
        <time>2020-06-19T11:04:22Z</time>
      </trkpt>
      <trkpt lat="49.63102" lon="4.98332">
        <ele>216.43</ele>
        <time>2020-06-19T11:04:28Z</time>
      </trkpt>
      <trkpt lat="49.63091" lon="4.98333">
        <ele>214.51</ele>
        <time>2020-06-19T11:04:40Z</time>
      </trkpt>
      <trkpt lat="49.63087" lon="4.98332">
        <ele>214.51</ele>
        <time>2020-06-19T11:04:44Z</time>
      </trkpt>
      <trkpt lat="49.63081" lon="4.98332">
        <ele>213.07</ele>
        <time>2020-06-19T11:04:49Z</time>
      </trkpt>
      <trkpt lat="49.6307" lon="4.98333">
        <ele>212.11</ele>
        <time>2020-06-19T11:05:00Z</time>
      </trkpt>
      <trkpt lat="49.6306" lon="4.98332">
        <ele>212.11</ele>
        <time>2020-06-19T11:05:12Z</time>
      </trkpt>
      <trkpt lat="49.63059" lon="4.98332">
        <ele>212.11</ele>
        <time>2020-06-19T11:05:15Z</time>
      </trkpt>
      <trkpt lat="49.63048" lon="4.98332">
        <ele>211.63</ele>
        <time>2020-06-19T11:05:27Z</time>
      </trkpt>
      <trkpt lat="49.63038" lon="4.9833">
        <ele>211.63</ele>
        <time>2020-06-19T11:05:38Z</time>
      </trkpt>
      <trkpt lat="49.63029" lon="4.98327">
        <ele>211.15</ele>
        <time>2020-06-19T11:05:47Z</time>
      </trkpt>
      <trkpt lat="49.63017" lon="4.98327">
        <ele>215.95</ele>
        <time>2020-06-19T11:05:59Z</time>
      </trkpt>
      <trkpt lat="49.63008" lon="4.98325">
        <ele>218.36</ele>
        <time>2020-06-19T11:06:10Z</time>
      </trkpt>
      <trkpt lat="49.62998" lon="4.98326">
        <ele>220.76</ele>
        <time>2020-06-19T11:06:21Z</time>
      </trkpt>
      <trkpt lat="49.62988" lon="4.98327">
        <ele>219.32</ele>
        <time>2020-06-19T11:06:32Z</time>
      </trkpt>
      <trkpt lat="49.62986" lon="4.98327">
        <ele>218.84</ele>
        <time>2020-06-19T11:06:36Z</time>
      </trkpt>
      <trkpt lat="49.62977" lon="4.98329">
        <ele>218.84</ele>
        <time>2020-06-19T11:06:45Z</time>
      </trkpt>
      <trkpt lat="49.6297" lon="4.98328">
        <ele>218.84</ele>
        <time>2020-06-19T11:06:52Z</time>
      </trkpt>
      <trkpt lat="49.62958" lon="4.98327">
        <ele>218.84</ele>
        <time>2020-06-19T11:07:05Z</time>
      </trkpt>
      <trkpt lat="49.62953" lon="4.98328">
        <ele>219.32</ele>
        <time>2020-06-19T11:07:10Z</time>
      </trkpt>
      <trkpt lat="49.62949" lon="4.98327">
        <ele>219.8</ele>
        <time>2020-06-19T11:07:15Z</time>
      </trkpt>
      <trkpt lat="49.62944" lon="4.98329">
        <ele>219.8</ele>
        <time>2020-06-19T11:07:21Z</time>
      </trkpt>
      <trkpt lat="49.62933" lon="4.98332">
        <ele>221.24</ele>
        <time>2020-06-19T11:07:33Z</time>
      </trkpt>
      <trkpt lat="49.62927" lon="4.98334">
        <ele>222.2</ele>
        <time>2020-06-19T11:07:40Z</time>
      </trkpt>
      <trkpt lat="49.62914" lon="4.98338">
        <ele>225.57</ele>
        <time>2020-06-19T11:07:52Z</time>
      </trkpt>
      <trkpt lat="49.62905" lon="4.98339">
        <ele>229.41</ele>
        <time>2020-06-19T11:08:02Z</time>
      </trkpt>
      <trkpt lat="49.629" lon="4.98341">
        <ele>230.37</ele>
        <time>2020-06-19T11:08:09Z</time>
      </trkpt>
      <trkpt lat="49.62891" lon="4.98342">
        <ele>230.85</ele>
        <time>2020-06-19T11:08:19Z</time>
      </trkpt>
      <trkpt lat="49.6288" lon="4.98345">
        <ele>232.3</ele>
        <time>2020-06-19T11:08:31Z</time>
      </trkpt>
      <trkpt lat="49.62874" lon="4.98351">
        <ele>232.3</ele>
        <time>2020-06-19T11:08:38Z</time>
      </trkpt>
      <trkpt lat="49.62865" lon="4.98352">
        <ele>232.78</ele>
        <time>2020-06-19T11:08:50Z</time>
      </trkpt>
      <trkpt lat="49.6286" lon="4.98353">
        <ele>232.78</ele>
        <time>2020-06-19T11:08:55Z</time>
      </trkpt>
      <trkpt lat="49.62856" lon="4.98353">
        <ele>233.26</ele>
        <time>2020-06-19T11:09:01Z</time>
      </trkpt>
      <trkpt lat="49.62844" lon="4.98357">
        <ele>234.7</ele>
        <time>2020-06-19T11:09:13Z</time>
      </trkpt>
      <trkpt lat="49.62833" lon="4.98359">
        <ele>237.1</ele>
        <time>2020-06-19T11:09:25Z</time>
      </trkpt>
      <trkpt lat="49.62829" lon="4.98362">
        <ele>239.51</ele>
        <time>2020-06-19T11:09:30Z</time>
      </trkpt>
      <trkpt lat="49.62815" lon="4.98371">
        <ele>244.79</ele>
        <time>2020-06-19T11:09:44Z</time>
      </trkpt>
      <trkpt lat="49.62815" lon="4.98371">
        <ele>245.27</ele>
        <time>2020-06-19T11:09:45Z</time>
      </trkpt>
      <trkpt lat="49.62811" lon="4.98373">
        <ele>246.23</ele>
        <time>2020-06-19T11:09:50Z</time>
      </trkpt>
      <trkpt lat="49.62805" lon="4.98377">
        <ele>248.16</ele>
        <time>2020-06-19T11:10:02Z</time>
      </trkpt>
      <trkpt lat="49.62794" lon="4.98383">
        <ele>250.08</ele>
        <time>2020-06-19T11:10:17Z</time>
      </trkpt>
      <trkpt lat="49.62783" lon="4.98391">
        <ele>253.44</ele>
        <time>2020-06-19T11:10:32Z</time>
      </trkpt>
      <trkpt lat="49.62769" lon="4.98399">
        <ele>253.93</ele>
        <time>2020-06-19T11:10:47Z</time>
      </trkpt>
      <trkpt lat="49.62752" lon="4.98414">
        <ele>259.21</ele>
        <time>2020-06-19T11:11:05Z</time>
      </trkpt>
      <trkpt lat="49.62739" lon="4.98423">
        <ele>262.58</ele>
        <time>2020-06-19T11:11:18Z</time>
      </trkpt>
      <trkpt lat="49.6273" lon="4.9843">
        <ele>264.5</ele>
        <time>2020-06-19T11:11:29Z</time>
      </trkpt>
      <trkpt lat="49.6272" lon="4.98438">
        <ele>266.9</ele>
        <time>2020-06-19T11:11:42Z</time>
      </trkpt>
      <trkpt lat="49.62709" lon="4.98448">
        <ele>269.31</ele>
        <time>2020-06-19T11:11:56Z</time>
      </trkpt>
      <trkpt lat="49.62699" lon="4.98456">
        <ele>269.31</ele>
        <time>2020-06-19T11:12:07Z</time>
      </trkpt>
      <trkpt lat="49.62691" lon="4.98461">
        <ele>267.38</ele>
        <time>2020-06-19T11:12:22Z</time>
      </trkpt>
      <trkpt lat="49.6268" lon="4.9847">
        <ele>264.5</ele>
        <time>2020-06-19T11:12:35Z</time>
      </trkpt>
      <trkpt lat="49.62666" lon="4.9848">
        <ele>264.02</ele>
        <time>2020-06-19T11:12:51Z</time>
      </trkpt>
      <trkpt lat="49.62653" lon="4.98491">
        <ele>264.5</ele>
        <time>2020-06-19T11:13:06Z</time>
      </trkpt>
      <trkpt lat="49.62643" lon="4.98501">
        <ele>265.46</ele>
        <time>2020-06-19T11:13:19Z</time>
      </trkpt>
      <trkpt lat="49.62632" lon="4.98509">
        <ele>265.46</ele>
        <time>2020-06-19T11:13:31Z</time>
      </trkpt>
      <trkpt lat="49.62617" lon="4.9852">
        <ele>264.98</ele>
        <time>2020-06-19T11:13:47Z</time>
      </trkpt>
      <trkpt lat="49.62602" lon="4.98532">
        <ele>264.98</ele>
        <time>2020-06-19T11:14:01Z</time>
      </trkpt>
      <trkpt lat="49.62593" lon="4.98541">
        <ele>265.94</ele>
        <time>2020-06-19T11:14:14Z</time>
      </trkpt>
      <trkpt lat="49.62583" lon="4.98549">
        <ele>265.46</ele>
        <time>2020-06-19T11:14:26Z</time>
      </trkpt>
      <trkpt lat="49.62572" lon="4.98561">
        <ele>264.02</ele>
        <time>2020-06-19T11:14:40Z</time>
      </trkpt>
      <trkpt lat="49.62565" lon="4.98569">
        <ele>263.54</ele>
        <time>2020-06-19T11:14:50Z</time>
      </trkpt>
      <trkpt lat="49.62553" lon="4.98578">
        <ele>265.94</ele>
        <time>2020-06-19T11:15:03Z</time>
      </trkpt>
      <trkpt lat="49.62552" lon="4.98579">
        <ele>265.46</ele>
        <time>2020-06-19T11:15:20Z</time>
      </trkpt>
      <trkpt lat="49.62552" lon="4.98579">
        <ele>264.98</ele>
        <time>2020-06-19T11:15:21Z</time>
      </trkpt>
      <trkpt lat="49.6255" lon="4.98579">
        <ele>262.1</ele>
        <time>2020-06-19T11:15:29Z</time>
      </trkpt>
      <trkpt lat="49.62543" lon="4.98592">
        <ele>260.65</ele>
        <time>2020-06-19T11:15:41Z</time>
      </trkpt>
      <trkpt lat="49.62535" lon="4.98604">
        <ele>259.69</ele>
        <time>2020-06-19T11:15:54Z</time>
      </trkpt>
      <trkpt lat="49.62525" lon="4.98616">
        <ele>258.73</ele>
        <time>2020-06-19T11:16:06Z</time>
      </trkpt>
      <trkpt lat="49.6252" lon="4.98622">
        <ele>258.73</ele>
        <time>2020-06-19T11:16:13Z</time>
      </trkpt>
      <trkpt lat="49.6251" lon="4.98634">
        <ele>258.25</ele>
        <time>2020-06-19T11:16:26Z</time>
      </trkpt>
      <trkpt lat="49.625" lon="4.98642">
        <ele>258.25</ele>
        <time>2020-06-19T11:16:38Z</time>
      </trkpt>
      <trkpt lat="49.62491" lon="4.98649">
        <ele>258.25</ele>
        <time>2020-06-19T11:16:48Z</time>
      </trkpt>
      <trkpt lat="49.62489" lon="4.98653">
        <ele>257.77</ele>
        <time>2020-06-19T11:16:52Z</time>
      </trkpt>
      <trkpt lat="49.62481" lon="4.98664">
        <ele>257.29</ele>
        <time>2020-06-19T11:17:06Z</time>
      </trkpt>
      <trkpt lat="49.62474" lon="4.98674">
        <ele>258.73</ele>
        <time>2020-06-19T11:17:18Z</time>
      </trkpt>
      <trkpt lat="49.62465" lon="4.98687">
        <ele>262.58</ele>
        <time>2020-06-19T11:17:30Z</time>
      </trkpt>
      <trkpt lat="49.62465" lon="4.98688">
        <ele>263.06</ele>
        <time>2020-06-19T11:17:32Z</time>
      </trkpt>
      <trkpt lat="49.62459" lon="4.987">
        <ele>266.42</ele>
        <time>2020-06-19T11:17:44Z</time>
      </trkpt>
      <trkpt lat="49.62454" lon="4.9871">
        <ele>269.79</ele>
        <time>2020-06-19T11:17:54Z</time>
      </trkpt>
      <trkpt lat="49.62451" lon="4.98717">
        <ele>271.23</ele>
        <time>2020-06-19T11:17:59Z</time>
      </trkpt>
      <trkpt lat="49.62448" lon="4.98723">
        <ele>272.19</ele>
        <time>2020-06-19T11:18:05Z</time>
      </trkpt>
      <trkpt lat="49.62447" lon="4.98728">
        <ele>273.63</ele>
        <time>2020-06-19T11:18:11Z</time>
      </trkpt>
      <trkpt lat="49.62443" lon="4.9874">
        <ele>275.07</ele>
        <time>2020-06-19T11:18:23Z</time>
      </trkpt>
      <trkpt lat="49.6244" lon="4.98754">
        <ele>276.52</ele>
        <time>2020-06-19T11:18:34Z</time>
      </trkpt>
      <trkpt lat="49.62437" lon="4.98768">
        <ele>279.4</ele>
        <time>2020-06-19T11:18:47Z</time>
      </trkpt>
      <trkpt lat="49.62436" lon="4.98783">
        <ele>280.36</ele>
        <time>2020-06-19T11:19:00Z</time>
      </trkpt>
      <trkpt lat="49.62435" lon="4.98797">
        <ele>281.32</ele>
        <time>2020-06-19T11:19:10Z</time>
      </trkpt>
      <trkpt lat="49.62434" lon="4.98806">
        <ele>281.8</ele>
        <time>2020-06-19T11:19:17Z</time>
      </trkpt>
      <trkpt lat="49.62433" lon="4.98816">
        <ele>282.77</ele>
        <time>2020-06-19T11:19:24Z</time>
      </trkpt>
      <trkpt lat="49.62433" lon="4.98826">
        <ele>284.69</ele>
        <time>2020-06-19T11:19:32Z</time>
      </trkpt>
      <trkpt lat="49.62431" lon="4.98836">
        <ele>286.13</ele>
        <time>2020-06-19T11:19:48Z</time>
      </trkpt>
      <trkpt lat="49.62432" lon="4.98839">
        <ele>288.53</ele>
        <time>2020-06-19T11:20:05Z</time>
      </trkpt>
      <trkpt lat="49.62433" lon="4.98845">
        <ele>289.97</ele>
        <time>2020-06-19T11:20:23Z</time>
      </trkpt>
      <trkpt lat="49.62433" lon="4.98849">
        <ele>290.46</ele>
        <time>2020-06-19T11:20:27Z</time>
      </trkpt>
      <trkpt lat="49.62427" lon="4.98859">
        <ele>291.42</ele>
        <time>2020-06-19T11:20:41Z</time>
      </trkpt>
      <trkpt lat="49.62423" lon="4.9887">
        <ele>291.9</ele>
        <time>2020-06-19T11:20:50Z</time>
      </trkpt>
      <trkpt lat="49.62422" lon="4.98874">
        <ele>292.38</ele>
        <time>2020-06-19T11:20:52Z</time>
      </trkpt>
      <trkpt lat="49.62417" lon="4.98896">
        <ele>292.38</ele>
        <time>2020-06-19T11:21:08Z</time>
      </trkpt>
      <trkpt lat="49.62413" lon="4.98916">
        <ele>294.78</ele>
        <time>2020-06-19T11:21:21Z</time>
      </trkpt>
      <trkpt lat="49.62411" lon="4.9893">
        <ele>295.74</ele>
        <time>2020-06-19T11:21:34Z</time>
      </trkpt>
      <trkpt lat="49.62407" lon="4.98945">
        <ele>297.18</ele>
        <time>2020-06-19T11:21:48Z</time>
      </trkpt>
      <trkpt lat="49.62406" lon="4.98947">
        <ele>297.18</ele>
        <time>2020-06-19T11:21:50Z</time>
      </trkpt>
      <trkpt lat="49.62404" lon="4.9896">
        <ele>300.07</ele>
        <time>2020-06-19T11:22:01Z</time>
      </trkpt>
      <trkpt lat="49.62398" lon="4.98978">
        <ele>304.88</ele>
        <time>2020-06-19T11:22:16Z</time>
      </trkpt>
      <trkpt lat="49.62395" lon="4.98995">
        <ele>303.43</ele>
        <time>2020-06-19T11:22:29Z</time>
      </trkpt>
      <trkpt lat="49.62394" lon="4.98998">
        <ele>303.43</ele>
        <time>2020-06-19T11:22:34Z</time>
      </trkpt>
      <trkpt lat="49.62389" lon="4.99012">
        <ele>302.95</ele>
        <time>2020-06-19T11:22:48Z</time>
      </trkpt>
      <trkpt lat="49.62388" lon="4.99027">
        <ele>300.55</ele>
        <time>2020-06-19T11:23:07Z</time>
      </trkpt>
      <trkpt lat="49.62385" lon="4.99038">
        <ele>301.99</ele>
        <time>2020-06-19T11:23:24Z</time>
      </trkpt>
      <trkpt lat="49.62385" lon="4.99042">
        <ele>301.03</ele>
        <time>2020-06-19T11:23:39Z</time>
      </trkpt>
      <trkpt lat="49.62386" lon="4.99046">
        <ele>301.03</ele>
        <time>2020-06-19T11:23:55Z</time>
      </trkpt>
      <trkpt lat="49.62387" lon="4.99049">
        <ele>301.99</ele>
        <time>2020-06-19T11:24:10Z</time>
      </trkpt>
      <trkpt lat="49.62387" lon="4.99051">
        <ele>301.99</ele>
        <time>2020-06-19T11:24:22Z</time>
      </trkpt>
      <trkpt lat="49.62386" lon="4.99054">
        <ele>302.95</ele>
        <time>2020-06-19T11:24:40Z</time>
      </trkpt>
      <trkpt lat="49.62385" lon="4.99055">
        <ele>302.95</ele>
        <time>2020-06-19T11:24:56Z</time>
      </trkpt>
      <trkpt lat="49.62383" lon="4.99058">
        <ele>303.43</ele>
        <time>2020-06-19T11:25:18Z</time>
      </trkpt>
      <trkpt lat="49.62375" lon="4.99068">
        <ele>302.47</ele>
        <time>2020-06-19T11:25:32Z</time>
      </trkpt>
      <trkpt lat="49.62367" lon="4.99081">
        <ele>303.43</ele>
        <time>2020-06-19T11:25:45Z</time>
      </trkpt>
      <trkpt lat="49.62364" lon="4.99087">
        <ele>303.91</ele>
        <time>2020-06-19T11:25:50Z</time>
      </trkpt>
      <trkpt lat="49.62356" lon="4.99102">
        <ele>304.88</ele>
        <time>2020-06-19T11:26:02Z</time>
      </trkpt>
      <trkpt lat="49.62344" lon="4.99128">
        <ele>305.36</ele>
        <time>2020-06-19T11:26:18Z</time>
      </trkpt>
      <trkpt lat="49.62337" lon="4.99134">
        <ele>306.8</ele>
        <time>2020-06-19T11:26:37Z</time>
      </trkpt>
      <trkpt lat="49.62331" lon="4.99149">
        <ele>308.24</ele>
        <time>2020-06-19T11:26:50Z</time>
      </trkpt>
      <trkpt lat="49.62323" lon="4.99162">
        <ele>311.6</ele>
        <time>2020-06-19T11:27:06Z</time>
      </trkpt>
      <trkpt lat="49.62322" lon="4.99167">
        <ele>312.57</ele>
        <time>2020-06-19T11:27:19Z</time>
      </trkpt>
      <trkpt lat="49.62316" lon="4.99175">
        <ele>315.45</ele>
        <time>2020-06-19T11:27:35Z</time>
      </trkpt>
      <trkpt lat="49.62309" lon="4.9919">
        <ele>317.37</ele>
        <time>2020-06-19T11:27:50Z</time>
      </trkpt>
      <trkpt lat="49.62305" lon="4.99197">
        <ele>318.33</ele>
        <time>2020-06-19T11:28:05Z</time>
      </trkpt>
      <trkpt lat="49.62302" lon="4.99214">
        <ele>318.81</ele>
        <time>2020-06-19T11:28:21Z</time>
      </trkpt>
      <trkpt lat="49.62307" lon="4.99225">
        <ele>317.85</ele>
        <time>2020-06-19T11:28:37Z</time>
      </trkpt>
      <trkpt lat="49.62318" lon="4.99245">
        <ele>314.01</ele>
        <time>2020-06-19T11:28:54Z</time>
      </trkpt>
      <trkpt lat="49.6232" lon="4.99248">
        <ele>313.05</ele>
        <time>2020-06-19T11:28:56Z</time>
      </trkpt>
      <trkpt lat="49.62338" lon="4.99259">
        <ele>310.64</ele>
        <time>2020-06-19T11:29:13Z</time>
      </trkpt>
      <trkpt lat="49.62354" lon="4.99264">
        <ele>305.36</ele>
        <time>2020-06-19T11:29:31Z</time>
      </trkpt>
      <trkpt lat="49.62372" lon="4.99266">
        <ele>301.03</ele>
        <time>2020-06-19T11:29:45Z</time>
      </trkpt>
      <trkpt lat="49.62384" lon="4.99269">
        <ele>298.63</ele>
        <time>2020-06-19T11:29:57Z</time>
      </trkpt>
      <trkpt lat="49.6239" lon="4.99271">
        <ele>296.7</ele>
        <time>2020-06-19T11:30:13Z</time>
      </trkpt>
      <trkpt lat="49.62398" lon="4.99269">
        <ele>296.22</ele>
        <time>2020-06-19T11:30:30Z</time>
      </trkpt>
      <trkpt lat="49.62403" lon="4.99269">
        <ele>296.22</ele>
        <time>2020-06-19T11:30:35Z</time>
      </trkpt>
      <trkpt lat="49.62418" lon="4.99268">
        <ele>297.18</ele>
        <time>2020-06-19T11:30:50Z</time>
      </trkpt>
      <trkpt lat="49.62433" lon="4.99271">
        <ele>299.59</ele>
        <time>2020-06-19T11:31:05Z</time>
      </trkpt>
      <trkpt lat="49.62438" lon="4.99269">
        <ele>298.15</ele>
        <time>2020-06-19T11:31:20Z</time>
      </trkpt>
      <trkpt lat="49.62444" lon="4.99267">
        <ele>297.18</ele>
        <time>2020-06-19T11:31:32Z</time>
      </trkpt>
      <trkpt lat="49.62452" lon="4.9927">
        <ele>296.7</ele>
        <time>2020-06-19T11:31:44Z</time>
      </trkpt>
      <trkpt lat="49.62458" lon="4.99272">
        <ele>296.7</ele>
        <time>2020-06-19T11:31:59Z</time>
      </trkpt>
      <trkpt lat="49.62477" lon="4.99276">
        <ele>296.22</ele>
        <time>2020-06-19T11:32:16Z</time>
      </trkpt>
      <trkpt lat="49.62497" lon="4.99283">
        <ele>297.18</ele>
        <time>2020-06-19T11:32:35Z</time>
      </trkpt>
      <trkpt lat="49.62511" lon="4.99284">
        <ele>299.11</ele>
        <time>2020-06-19T11:32:53Z</time>
      </trkpt>
      <trkpt lat="49.62527" lon="4.99286">
        <ele>297.67</ele>
        <time>2020-06-19T11:33:11Z</time>
      </trkpt>
      <trkpt lat="49.62537" lon="4.99287">
        <ele>298.15</ele>
        <time>2020-06-19T11:33:28Z</time>
      </trkpt>
      <trkpt lat="49.62551" lon="4.99288">
        <ele>298.63</ele>
        <time>2020-06-19T11:33:42Z</time>
      </trkpt>
      <trkpt lat="49.62564" lon="4.99286">
        <ele>299.59</ele>
        <time>2020-06-19T11:33:58Z</time>
      </trkpt>
      <trkpt lat="49.62574" lon="4.99287">
        <ele>301.03</ele>
        <time>2020-06-19T11:34:13Z</time>
      </trkpt>
      <trkpt lat="49.62583" lon="4.99287">
        <ele>301.03</ele>
        <time>2020-06-19T11:34:28Z</time>
      </trkpt>
      <trkpt lat="49.62595" lon="4.99285">
        <ele>301.99</ele>
        <time>2020-06-19T11:34:43Z</time>
      </trkpt>
      <trkpt lat="49.62604" lon="4.99285">
        <ele>300.55</ele>
        <time>2020-06-19T11:34:59Z</time>
      </trkpt>
      <trkpt lat="49.62604" lon="4.99286">
        <ele>300.55</ele>
        <time>2020-06-19T11:35:00Z</time>
      </trkpt>
      <trkpt lat="49.62611" lon="4.99302">
        <ele>298.63</ele>
        <time>2020-06-19T11:35:11Z</time>
      </trkpt>
      <trkpt lat="49.6262" lon="4.99321">
        <ele>299.11</ele>
        <time>2020-06-19T11:35:27Z</time>
      </trkpt>
      <trkpt lat="49.6262" lon="4.99325">
        <ele>297.67</ele>
        <time>2020-06-19T11:35:44Z</time>
      </trkpt>
      <trkpt lat="49.62629" lon="4.99327">
        <ele>297.67</ele>
        <time>2020-06-19T11:36:00Z</time>
      </trkpt>
      <trkpt lat="49.62646" lon="4.99329">
        <ele>296.7</ele>
        <time>2020-06-19T11:36:18Z</time>
      </trkpt>
      <trkpt lat="49.62662" lon="4.99329">
        <ele>296.7</ele>
        <time>2020-06-19T11:36:35Z</time>
      </trkpt>
      <trkpt lat="49.62672" lon="4.99326">
        <ele>298.63</ele>
        <time>2020-06-19T11:36:52Z</time>
      </trkpt>
      <trkpt lat="49.62679" lon="4.99326">
        <ele>300.55</ele>
        <time>2020-06-19T11:37:07Z</time>
      </trkpt>
      <trkpt lat="49.62694" lon="4.99331">
        <ele>303.43</ele>
        <time>2020-06-19T11:37:23Z</time>
      </trkpt>
      <trkpt lat="49.62713" lon="4.99329">
        <ele>303.91</ele>
        <time>2020-06-19T11:37:38Z</time>
      </trkpt>
      <trkpt lat="49.62727" lon="4.99327">
        <ele>300.55</ele>
        <time>2020-06-19T11:37:48Z</time>
      </trkpt>
      <trkpt lat="49.62746" lon="4.99333">
        <ele>299.11</ele>
        <time>2020-06-19T11:38:02Z</time>
      </trkpt>
      <trkpt lat="49.62747" lon="4.99334">
        <ele>299.11</ele>
        <time>2020-06-19T11:38:03Z</time>
      </trkpt>
      <trkpt lat="49.62765" lon="4.99346">
        <ele>300.07</ele>
        <time>2020-06-19T11:38:19Z</time>
      </trkpt>
      <trkpt lat="49.62779" lon="4.99357">
        <ele>299.11</ele>
        <time>2020-06-19T11:38:34Z</time>
      </trkpt>
      <trkpt lat="49.6278" lon="4.99357">
        <ele>299.11</ele>
        <time>2020-06-19T11:38:35Z</time>
      </trkpt>
      <trkpt lat="49.62797" lon="4.99367">
        <ele>297.67</ele>
        <time>2020-06-19T11:38:52Z</time>
      </trkpt>
      <trkpt lat="49.62803" lon="4.99368">
        <ele>297.18</ele>
        <time>2020-06-19T11:39:09Z</time>
      </trkpt>
      <trkpt lat="49.62822" lon="4.99381">
        <ele>298.63</ele>
        <time>2020-06-19T11:39:24Z</time>
      </trkpt>
      <trkpt lat="49.62835" lon="4.99388">
        <ele>300.55</ele>
        <time>2020-06-19T11:39:39Z</time>
      </trkpt>
      <trkpt lat="49.62847" lon="4.99397">
        <ele>301.51</ele>
        <time>2020-06-19T11:39:54Z</time>
      </trkpt>
      <trkpt lat="49.62867" lon="4.99401">
        <ele>303.43</ele>
        <time>2020-06-19T11:40:11Z</time>
      </trkpt>
      <trkpt lat="49.62883" lon="4.99398">
        <ele>305.36</ele>
        <time>2020-06-19T11:40:24Z</time>
      </trkpt>
      <trkpt lat="49.62898" lon="4.99392">
        <ele>305.36</ele>
        <time>2020-06-19T11:40:41Z</time>
      </trkpt>
      <trkpt lat="49.62908" lon="4.99386">
        <ele>303.91</ele>
        <time>2020-06-19T11:40:54Z</time>
      </trkpt>
      <trkpt lat="49.62918" lon="4.99379">
        <ele>305.36</ele>
        <time>2020-06-19T11:41:10Z</time>
      </trkpt>
      <trkpt lat="49.62933" lon="4.99369">
        <ele>306.32</ele>
        <time>2020-06-19T11:41:27Z</time>
      </trkpt>
      <trkpt lat="49.62942" lon="4.99363">
        <ele>307.28</ele>
        <time>2020-06-19T11:41:36Z</time>
      </trkpt>
      <trkpt lat="49.62956" lon="4.99351">
        <ele>306.8</ele>
        <time>2020-06-19T11:41:49Z</time>
      </trkpt>
      <trkpt lat="49.6296" lon="4.99345">
        <ele>306.32</ele>
        <time>2020-06-19T11:41:56Z</time>
      </trkpt>
      <trkpt lat="49.62965" lon="4.99344">
        <ele>306.8</ele>
        <time>2020-06-19T11:42:00Z</time>
      </trkpt>
      <trkpt lat="49.62978" lon="4.99342">
        <ele>308.72</ele>
        <time>2020-06-19T11:42:13Z</time>
      </trkpt>
      <trkpt lat="49.62987" lon="4.99334">
        <ele>309.2</ele>
        <time>2020-06-19T11:42:22Z</time>
      </trkpt>
      <trkpt lat="49.62996" lon="4.99318">
        <ele>307.76</ele>
        <time>2020-06-19T11:42:33Z</time>
      </trkpt>
      <trkpt lat="49.63004" lon="4.99311">
        <ele>307.28</ele>
        <time>2020-06-19T11:42:48Z</time>
      </trkpt>
      <trkpt lat="49.63012" lon="4.99307">
        <ele>305.84</ele>
        <time>2020-06-19T11:43:01Z</time>
      </trkpt>
      <trkpt lat="49.63014" lon="4.99308">
        <ele>305.36</ele>
        <time>2020-06-19T11:43:03Z</time>
      </trkpt>
      <trkpt lat="49.63028" lon="4.99311">
        <ele>305.36</ele>
        <time>2020-06-19T11:43:17Z</time>
      </trkpt>
      <trkpt lat="49.63041" lon="4.99313">
        <ele>305.84</ele>
        <time>2020-06-19T11:43:31Z</time>
      </trkpt>
      <trkpt lat="49.63055" lon="4.99324">
        <ele>305.84</ele>
        <time>2020-06-19T11:43:44Z</time>
      </trkpt>
      <trkpt lat="49.63066" lon="4.99326">
        <ele>305.36</ele>
        <time>2020-06-19T11:43:57Z</time>
      </trkpt>
      <trkpt lat="49.63077" lon="4.99324">
        <ele>304.39</ele>
        <time>2020-06-19T11:44:11Z</time>
      </trkpt>
      <trkpt lat="49.63092" lon="4.99325">
        <ele>305.36</ele>
        <time>2020-06-19T11:44:26Z</time>
      </trkpt>
      <trkpt lat="49.63097" lon="4.99327">
        <ele>306.32</ele>
        <time>2020-06-19T11:44:35Z</time>
      </trkpt>
      <trkpt lat="49.63107" lon="4.99333">
        <ele>307.28</ele>
        <time>2020-06-19T11:44:48Z</time>
      </trkpt>
      <trkpt lat="49.63119" lon="4.99335">
        <ele>304.88</ele>
        <time>2020-06-19T11:44:59Z</time>
      </trkpt>
      <trkpt lat="49.63124" lon="4.99334">
        <ele>303.43</ele>
        <time>2020-06-19T11:45:12Z</time>
      </trkpt>
      <trkpt lat="49.63124" lon="4.99334">
        <ele>303.43</ele>
        <time>2020-06-19T11:45:13Z</time>
      </trkpt>
      <trkpt lat="49.63128" lon="4.99312">
        <ele>302.95</ele>
        <time>2020-06-19T11:45:31Z</time>
      </trkpt>
      <trkpt lat="49.6313" lon="4.99308">
        <ele>301.99</ele>
        <time>2020-06-19T11:45:36Z</time>
      </trkpt>
      <trkpt lat="49.63134" lon="4.99289">
        <ele>300.07</ele>
        <time>2020-06-19T11:45:49Z</time>
      </trkpt>
      <trkpt lat="49.63136" lon="4.99275">
        <ele>298.63</ele>
        <time>2020-06-19T11:46:00Z</time>
      </trkpt>
      <trkpt lat="49.63136" lon="4.99259">
        <ele>296.22</ele>
        <time>2020-06-19T11:46:13Z</time>
      </trkpt>
      <trkpt lat="49.63139" lon="4.99247">
        <ele>291.42</ele>
        <time>2020-06-19T11:46:25Z</time>
      </trkpt>
      <trkpt lat="49.63135" lon="4.99243">
        <ele>290.46</ele>
        <time>2020-06-19T11:46:41Z</time>
      </trkpt>
      <trkpt lat="49.63134" lon="4.99241">
        <ele>289.97</ele>
        <time>2020-06-19T11:46:52Z</time>
      </trkpt>
      <trkpt lat="49.63132" lon="4.99246">
        <ele>290.46</ele>
        <time>2020-06-19T11:47:04Z</time>
      </trkpt>
      <trkpt lat="49.63132" lon="4.99248">
        <ele>290.94</ele>
        <time>2020-06-19T11:47:10Z</time>
      </trkpt>
      <trkpt lat="49.63133" lon="4.99265">
        <ele>293.34</ele>
        <time>2020-06-19T11:47:26Z</time>
      </trkpt>
      <trkpt lat="49.63132" lon="4.99268">
        <ele>293.34</ele>
        <time>2020-06-19T11:47:31Z</time>
      </trkpt>
      <trkpt lat="49.6313" lon="4.99287">
        <ele>294.3</ele>
        <time>2020-06-19T11:47:46Z</time>
      </trkpt>
      <trkpt lat="49.6313" lon="4.99289">
        <ele>294.3</ele>
        <time>2020-06-19T11:47:47Z</time>
      </trkpt>
      <trkpt lat="49.63127" lon="4.99306">
        <ele>296.7</ele>
        <time>2020-06-19T11:48:00Z</time>
      </trkpt>
      <trkpt lat="49.63126" lon="4.99316">
        <ele>296.22</ele>
        <time>2020-06-19T11:48:14Z</time>
      </trkpt>
      <trkpt lat="49.63129" lon="4.99323">
        <ele>297.18</ele>
        <time>2020-06-19T11:48:26Z</time>
      </trkpt>
      <trkpt lat="49.63128" lon="4.99324">
        <ele>297.67</ele>
        <time>2020-06-19T11:48:31Z</time>
      </trkpt>
      <trkpt lat="49.63132" lon="4.9933">
        <ele>296.7</ele>
        <time>2020-06-19T11:48:45Z</time>
      </trkpt>
      <trkpt lat="49.63138" lon="4.99335">
        <ele>296.22</ele>
        <time>2020-06-19T11:48:58Z</time>
      </trkpt>
      <trkpt lat="49.63153" lon="4.99346">
        <ele>294.78</ele>
        <time>2020-06-19T11:49:13Z</time>
      </trkpt>
      <trkpt lat="49.63159" lon="4.99349">
        <ele>294.78</ele>
        <time>2020-06-19T11:49:28Z</time>
      </trkpt>
      <trkpt lat="49.63164" lon="4.99349">
        <ele>296.22</ele>
        <time>2020-06-19T11:49:45Z</time>
      </trkpt>
      <trkpt lat="49.63176" lon="4.99348">
        <ele>295.74</ele>
        <time>2020-06-19T11:50:01Z</time>
      </trkpt>
      <trkpt lat="49.63185" lon="4.9935">
        <ele>297.18</ele>
        <time>2020-06-19T11:50:15Z</time>
      </trkpt>
      <trkpt lat="49.63193" lon="4.99351">
        <ele>297.67</ele>
        <time>2020-06-19T11:50:29Z</time>
      </trkpt>
      <trkpt lat="49.63197" lon="4.99351">
        <ele>297.67</ele>
        <time>2020-06-19T11:50:44Z</time>
      </trkpt>
      <trkpt lat="49.63211" lon="4.9935">
        <ele>300.07</ele>
        <time>2020-06-19T11:51:01Z</time>
      </trkpt>
      <trkpt lat="49.63228" lon="4.99354">
        <ele>301.99</ele>
        <time>2020-06-19T11:51:14Z</time>
      </trkpt>
      <trkpt lat="49.63234" lon="4.99354">
        <ele>300.07</ele>
        <time>2020-06-19T11:51:31Z</time>
      </trkpt>
      <trkpt lat="49.63235" lon="4.9936">
        <ele>298.63</ele>
        <time>2020-06-19T11:51:36Z</time>
      </trkpt>
      <trkpt lat="49.63232" lon="4.99369">
        <ele>297.67</ele>
        <time>2020-06-19T11:51:45Z</time>
      </trkpt>
      <trkpt lat="49.6323" lon="4.99375">
        <ele>297.18</ele>
        <time>2020-06-19T11:51:51Z</time>
      </trkpt>
      <trkpt lat="49.63228" lon="4.99377">
        <ele>296.7</ele>
        <time>2020-06-19T11:51:53Z</time>
      </trkpt>
      <trkpt lat="49.63234" lon="4.99391">
        <ele>296.22</ele>
        <time>2020-06-19T11:52:04Z</time>
      </trkpt>
      <trkpt lat="49.63228" lon="4.99404">
        <ele>294.78</ele>
        <time>2020-06-19T11:52:17Z</time>
      </trkpt>
      <trkpt lat="49.63222" lon="4.99408">
        <ele>294.78</ele>
        <time>2020-06-19T11:52:25Z</time>
      </trkpt>
      <trkpt lat="49.63216" lon="4.99412">
        <ele>297.18</ele>
        <time>2020-06-19T11:52:34Z</time>
      </trkpt>
      <trkpt lat="49.6321" lon="4.99423">
        <ele>301.03</ele>
        <time>2020-06-19T11:52:47Z</time>
      </trkpt>
      <trkpt lat="49.63202" lon="4.99429">
        <ele>301.51</ele>
        <time>2020-06-19T11:52:55Z</time>
      </trkpt>
      <trkpt lat="49.63188" lon="4.99442">
        <ele>299.59</ele>
        <time>2020-06-19T11:53:10Z</time>
      </trkpt>
      <trkpt lat="49.63183" lon="4.9945">
        <ele>298.63</ele>
        <time>2020-06-19T11:53:18Z</time>
      </trkpt>
      <trkpt lat="49.63169" lon="4.99464">
        <ele>295.74</ele>
        <time>2020-06-19T11:53:31Z</time>
      </trkpt>
      <trkpt lat="49.63163" lon="4.99477">
        <ele>294.3</ele>
        <time>2020-06-19T11:53:44Z</time>
      </trkpt>
      <trkpt lat="49.63163" lon="4.9948">
        <ele>294.3</ele>
        <time>2020-06-19T11:53:47Z</time>
      </trkpt>
      <trkpt lat="49.63145" lon="4.99495">
        <ele>292.38</ele>
        <time>2020-06-19T11:54:02Z</time>
      </trkpt>
      <trkpt lat="49.63133" lon="4.99513">
        <ele>290.94</ele>
        <time>2020-06-19T11:54:15Z</time>
      </trkpt>
      <trkpt lat="49.63128" lon="4.99517">
        <ele>291.42</ele>
        <time>2020-06-19T11:54:22Z</time>
      </trkpt>
      <trkpt lat="49.6312" lon="4.99535">
        <ele>290.94</ele>
        <time>2020-06-19T11:54:36Z</time>
      </trkpt>
      <trkpt lat="49.63118" lon="4.99541">
        <ele>290.94</ele>
        <time>2020-06-19T11:54:41Z</time>
      </trkpt>
      <trkpt lat="49.63115" lon="4.99546">
        <ele>290.94</ele>
        <time>2020-06-19T11:54:47Z</time>
      </trkpt>
      <trkpt lat="49.63112" lon="4.9955">
        <ele>290.46</ele>
        <time>2020-06-19T11:54:50Z</time>
      </trkpt>
      <trkpt lat="49.63108" lon="4.99559">
        <ele>289.97</ele>
        <time>2020-06-19T11:54:56Z</time>
      </trkpt>
      <trkpt lat="49.63096" lon="4.99576">
        <ele>289.01</ele>
        <time>2020-06-19T11:55:10Z</time>
      </trkpt>
      <trkpt lat="49.63093" lon="4.99582">
        <ele>288.53</ele>
        <time>2020-06-19T11:55:16Z</time>
      </trkpt>
      <trkpt lat="49.63088" lon="4.99595">
        <ele>287.57</ele>
        <time>2020-06-19T11:55:28Z</time>
      </trkpt>
      <trkpt lat="49.6308" lon="4.9961">
        <ele>286.61</ele>
        <time>2020-06-19T11:55:43Z</time>
      </trkpt>
      <trkpt lat="49.63073" lon="4.99621">
        <ele>287.57</ele>
        <time>2020-06-19T11:55:53Z</time>
      </trkpt>
      <trkpt lat="49.63059" lon="4.99638">
        <ele>289.49</ele>
        <time>2020-06-19T11:56:08Z</time>
      </trkpt>
      <trkpt lat="49.63058" lon="4.99639">
        <ele>289.49</ele>
        <time>2020-06-19T11:56:09Z</time>
      </trkpt>
      <trkpt lat="49.63054" lon="4.99657">
        <ele>289.97</ele>
        <time>2020-06-19T11:56:24Z</time>
      </trkpt>
      <trkpt lat="49.63047" lon="4.9967">
        <ele>289.49</ele>
        <time>2020-06-19T11:56:37Z</time>
      </trkpt>
      <trkpt lat="49.63043" lon="4.99679">
        <ele>289.01</ele>
        <time>2020-06-19T11:56:45Z</time>
      </trkpt>
      <trkpt lat="49.63036" lon="4.9969">
        <ele>290.46</ele>
        <time>2020-06-19T11:57:01Z</time>
      </trkpt>
      <trkpt lat="49.63034" lon="4.99697">
        <ele>289.49</ele>
        <time>2020-06-19T11:57:15Z</time>
      </trkpt>
      <trkpt lat="49.63031" lon="4.99701">
        <ele>288.53</ele>
        <time>2020-06-19T11:57:22Z</time>
      </trkpt>
      <trkpt lat="49.63022" lon="4.99713">
        <ele>287.09</ele>
        <time>2020-06-19T11:57:34Z</time>
      </trkpt>
      <trkpt lat="49.63017" lon="4.99721">
        <ele>287.57</ele>
        <time>2020-06-19T11:57:49Z</time>
      </trkpt>
      <trkpt lat="49.6301" lon="4.99723">
        <ele>288.53</ele>
        <time>2020-06-19T11:58:03Z</time>
      </trkpt>
      <trkpt lat="49.63008" lon="4.99724">
        <ele>289.97</ele>
        <time>2020-06-19T11:58:18Z</time>
      </trkpt>
      <trkpt lat="49.63009" lon="4.99726">
        <ele>289.49</ele>
        <time>2020-06-19T11:58:21Z</time>
      </trkpt>
      <trkpt lat="49.63015" lon="4.99739">
        <ele>289.97</ele>
        <time>2020-06-19T11:58:36Z</time>
      </trkpt>
      <trkpt lat="49.63023" lon="4.99754">
        <ele>290.46</ele>
        <time>2020-06-19T11:58:48Z</time>
      </trkpt>
      <trkpt lat="49.63034" lon="4.99772">
        <ele>290.94</ele>
        <time>2020-06-19T11:59:02Z</time>
      </trkpt>
      <trkpt lat="49.63044" lon="4.99789">
        <ele>291.42</ele>
        <time>2020-06-19T11:59:17Z</time>
      </trkpt>
      <trkpt lat="49.63053" lon="4.99802">
        <ele>291.9</ele>
        <time>2020-06-19T11:59:32Z</time>
      </trkpt>
      <trkpt lat="49.63063" lon="4.99814">
        <ele>291.9</ele>
        <time>2020-06-19T11:59:46Z</time>
      </trkpt>
      <trkpt lat="49.63073" lon="4.99828">
        <ele>291.42</ele>
        <time>2020-06-19T12:00:00Z</time>
      </trkpt>
      <trkpt lat="49.63087" lon="4.99844">
        <ele>290.94</ele>
        <time>2020-06-19T12:00:16Z</time>
      </trkpt>
      <trkpt lat="49.63094" lon="4.99854">
        <ele>290.46</ele>
        <time>2020-06-19T12:00:33Z</time>
      </trkpt>
      <trkpt lat="49.63096" lon="4.99857">
        <ele>290.46</ele>
        <time>2020-06-19T12:00:48Z</time>
      </trkpt>
      <trkpt lat="49.63103" lon="4.99868">
        <ele>289.97</ele>
        <time>2020-06-19T12:01:01Z</time>
      </trkpt>
      <trkpt lat="49.63111" lon="4.99882">
        <ele>288.05</ele>
        <time>2020-06-19T12:01:16Z</time>
      </trkpt>
      <trkpt lat="49.63116" lon="4.99889">
        <ele>287.09</ele>
        <time>2020-06-19T12:01:31Z</time>
      </trkpt>
      <trkpt lat="49.63116" lon="4.99888">
        <ele>286.13</ele>
        <time>2020-06-19T12:01:47Z</time>
      </trkpt>
      <trkpt lat="49.63113" lon="4.99881">
        <ele>285.17</ele>
        <time>2020-06-19T12:02:01Z</time>
      </trkpt>
      <trkpt lat="49.6311" lon="4.99873">
        <ele>284.21</ele>
        <time>2020-06-19T12:02:18Z</time>
      </trkpt>
      <trkpt lat="49.63107" lon="4.99864">
        <ele>282.77</ele>
        <time>2020-06-19T12:02:31Z</time>
      </trkpt>
      <trkpt lat="49.63103" lon="4.99857">
        <ele>282.28</ele>
        <time>2020-06-19T12:02:43Z</time>
      </trkpt>
      <trkpt lat="49.63092" lon="4.99836">
        <ele>282.77</ele>
        <time>2020-06-19T12:02:59Z</time>
      </trkpt>
      <trkpt lat="49.63078" lon="4.99817">
        <ele>283.25</ele>
        <time>2020-06-19T12:03:15Z</time>
      </trkpt>
      <trkpt lat="49.63066" lon="4.99803">
        <ele>284.69</ele>
        <time>2020-06-19T12:03:29Z</time>
      </trkpt>
      <trkpt lat="49.63057" lon="4.99788">
        <ele>288.05</ele>
        <time>2020-06-19T12:03:43Z</time>
      </trkpt>
      <trkpt lat="49.63045" lon="4.99775">
        <ele>289.97</ele>
        <time>2020-06-19T12:03:58Z</time>
      </trkpt>
      <trkpt lat="49.63038" lon="4.99767">
        <ele>289.97</ele>
        <time>2020-06-19T12:04:17Z</time>
      </trkpt>
      <trkpt lat="49.63033" lon="4.99768">
        <ele>289.97</ele>
        <time>2020-06-19T12:04:30Z</time>
      </trkpt>
      <trkpt lat="49.63025" lon="4.99778">
        <ele>291.9</ele>
        <time>2020-06-19T12:04:42Z</time>
      </trkpt>
      <trkpt lat="49.63019" lon="4.99794">
        <ele>295.26</ele>
        <time>2020-06-19T12:04:57Z</time>
      </trkpt>
      <trkpt lat="49.63017" lon="4.99805">
        <ele>298.15</ele>
        <time>2020-06-19T12:05:04Z</time>
      </trkpt>
      <trkpt lat="49.63008" lon="4.99822">
        <ele>299.59</ele>
        <time>2020-06-19T12:05:19Z</time>
      </trkpt>
      <trkpt lat="49.63003" lon="4.99839">
        <ele>299.11</ele>
        <time>2020-06-19T12:05:33Z</time>
      </trkpt>
      <trkpt lat="49.63" lon="4.99855">
        <ele>300.07</ele>
        <time>2020-06-19T12:05:46Z</time>
      </trkpt>
      <trkpt lat="49.62997" lon="4.99882">
        <ele>299.59</ele>
        <time>2020-06-19T12:06:00Z</time>
      </trkpt>
      <trkpt lat="49.62996" lon="4.99901">
        <ele>299.59</ele>
        <time>2020-06-19T12:06:14Z</time>
      </trkpt>
      <trkpt lat="49.62994" lon="4.99914">
        <ele>300.55</ele>
        <time>2020-06-19T12:06:27Z</time>
      </trkpt>
      <trkpt lat="49.62992" lon="4.99944">
        <ele>300.07</ele>
        <time>2020-06-19T12:06:43Z</time>
      </trkpt>
      <trkpt lat="49.62992" lon="4.99961">
        <ele>298.15</ele>
        <time>2020-06-19T12:06:57Z</time>
      </trkpt>
      <trkpt lat="49.62989" lon="4.99983">
        <ele>296.7</ele>
        <time>2020-06-19T12:07:11Z</time>
      </trkpt>
      <trkpt lat="49.6299" lon="4.99988">
        <ele>295.26</ele>
        <time>2020-06-19T12:07:26Z</time>
      </trkpt>
      <trkpt lat="49.62989" lon="4.9999">
        <ele>295.74</ele>
        <time>2020-06-19T12:07:42Z</time>
      </trkpt>
      <trkpt lat="49.62989" lon="4.99992">
        <ele>295.26</ele>
        <time>2020-06-19T12:07:59Z</time>
      </trkpt>
      <trkpt lat="49.62989" lon="4.99993">
        <ele>295.26</ele>
        <time>2020-06-19T12:08:01Z</time>
      </trkpt>
      <trkpt lat="49.62989" lon="5.00007">
        <ele>293.82</ele>
        <time>2020-06-19T12:08:15Z</time>
      </trkpt>
      <trkpt lat="49.62983" lon="5.0002">
        <ele>295.26</ele>
        <time>2020-06-19T12:08:27Z</time>
      </trkpt>
      <trkpt lat="49.62982" lon="5.0004">
        <ele>294.78</ele>
        <time>2020-06-19T12:08:40Z</time>
      </trkpt>
      <trkpt lat="49.62984" lon="5.00065">
        <ele>293.82</ele>
        <time>2020-06-19T12:08:55Z</time>
      </trkpt>
      <trkpt lat="49.62984" lon="5.00069">
        <ele>293.82</ele>
        <time>2020-06-19T12:08:57Z</time>
      </trkpt>
      <trkpt lat="49.62989" lon="5.00085">
        <ele>293.34</ele>
        <time>2020-06-19T12:09:06Z</time>
      </trkpt>
      <trkpt lat="49.62988" lon="5.00102">
        <ele>292.86</ele>
        <time>2020-06-19T12:09:19Z</time>
      </trkpt>
      <trkpt lat="49.6299" lon="5.00121">
        <ele>290.94</ele>
        <time>2020-06-19T12:09:35Z</time>
      </trkpt>
      <trkpt lat="49.62993" lon="5.0014">
        <ele>288.53</ele>
        <time>2020-06-19T12:09:48Z</time>
      </trkpt>
      <trkpt lat="49.62995" lon="5.00157">
        <ele>287.57</ele>
        <time>2020-06-19T12:10:00Z</time>
      </trkpt>
      <trkpt lat="49.62994" lon="5.00172">
        <ele>288.05</ele>
        <time>2020-06-19T12:10:12Z</time>
      </trkpt>
      <trkpt lat="49.62995" lon="5.00182">
        <ele>287.57</ele>
        <time>2020-06-19T12:10:29Z</time>
      </trkpt>
      <trkpt lat="49.62996" lon="5.0019">
        <ele>285.17</ele>
        <time>2020-06-19T12:10:43Z</time>
      </trkpt>
      <trkpt lat="49.62997" lon="5.00202">
        <ele>284.21</ele>
        <time>2020-06-19T12:10:56Z</time>
      </trkpt>
      <trkpt lat="49.62999" lon="5.00211">
        <ele>283.25</ele>
        <time>2020-06-19T12:11:14Z</time>
      </trkpt>
      <trkpt lat="49.63" lon="5.00236">
        <ele>283.25</ele>
        <time>2020-06-19T12:11:27Z</time>
      </trkpt>
      <trkpt lat="49.62997" lon="5.00253">
        <ele>284.69</ele>
        <time>2020-06-19T12:11:42Z</time>
      </trkpt>
      <trkpt lat="49.62997" lon="5.00262">
        <ele>283.73</ele>
        <time>2020-06-19T12:11:57Z</time>
      </trkpt>
      <trkpt lat="49.62996" lon="5.00281">
        <ele>281.32</ele>
        <time>2020-06-19T12:12:08Z</time>
      </trkpt>
      <trkpt lat="49.62994" lon="5.00303">
        <ele>277</ele>
        <time>2020-06-19T12:12:23Z</time>
      </trkpt>
      <trkpt lat="49.62991" lon="5.00323">
        <ele>276.52</ele>
        <time>2020-06-19T12:12:37Z</time>
      </trkpt>
      <trkpt lat="49.6299" lon="5.00337">
        <ele>275.56</ele>
        <time>2020-06-19T12:12:48Z</time>
      </trkpt>
      <trkpt lat="49.62991" lon="5.00354">
        <ele>275.07</ele>
        <time>2020-06-19T12:13:02Z</time>
      </trkpt>
      <trkpt lat="49.62991" lon="5.00358">
        <ele>274.59</ele>
        <time>2020-06-19T12:13:08Z</time>
      </trkpt>
      <trkpt lat="49.62996" lon="5.00381">
        <ele>273.15</ele>
        <time>2020-06-19T12:13:20Z</time>
      </trkpt>
      <trkpt lat="49.62996" lon="5.00396">
        <ele>273.15</ele>
        <time>2020-06-19T12:13:32Z</time>
      </trkpt>
      <trkpt lat="49.62997" lon="5.00403">
        <ele>271.71</ele>
        <time>2020-06-19T12:13:45Z</time>
      </trkpt>
      <trkpt lat="49.62997" lon="5.00418">
        <ele>271.71</ele>
        <time>2020-06-19T12:14:00Z</time>
      </trkpt>
      <trkpt lat="49.62995" lon="5.00423">
        <ele>270.75</ele>
        <time>2020-06-19T12:14:03Z</time>
      </trkpt>
      <trkpt lat="49.62994" lon="5.00444">
        <ele>266.42</ele>
        <time>2020-06-19T12:14:16Z</time>
      </trkpt>
      <trkpt lat="49.62994" lon="5.00457">
        <ele>264.5</ele>
        <time>2020-06-19T12:14:24Z</time>
      </trkpt>
      <trkpt lat="49.62994" lon="5.00469">
        <ele>262.58</ele>
        <time>2020-06-19T12:14:36Z</time>
      </trkpt>
      <trkpt lat="49.62992" lon="5.00483">
        <ele>260.17</ele>
        <time>2020-06-19T12:14:49Z</time>
      </trkpt>
      <trkpt lat="49.62991" lon="5.00492">
        <ele>259.21</ele>
        <time>2020-06-19T12:15:00Z</time>
      </trkpt>
      <trkpt lat="49.62991" lon="5.00504">
        <ele>257.77</ele>
        <time>2020-06-19T12:15:12Z</time>
      </trkpt>
      <trkpt lat="49.62989" lon="5.00526">
        <ele>255.85</ele>
        <time>2020-06-19T12:15:28Z</time>
      </trkpt>
      <trkpt lat="49.62988" lon="5.00541">
        <ele>256.33</ele>
        <time>2020-06-19T12:15:38Z</time>
      </trkpt>
      <trkpt lat="49.62983" lon="5.00558">
        <ele>255.37</ele>
        <time>2020-06-19T12:15:52Z</time>
      </trkpt>
      <trkpt lat="49.62985" lon="5.00568">
        <ele>252.96</ele>
        <time>2020-06-19T12:16:06Z</time>
      </trkpt>
      <trkpt lat="49.62989" lon="5.00577">
        <ele>251.52</ele>
        <time>2020-06-19T12:16:29Z</time>
      </trkpt>
      <trkpt lat="49.62988" lon="5.00579">
        <ele>251.52</ele>
        <time>2020-06-19T12:16:50Z</time>
      </trkpt>
      <trkpt lat="49.6299" lon="5.00581">
        <ele>258.73</ele>
        <time>2020-06-19T12:17:19Z</time>
      </trkpt>
      <trkpt lat="49.6299" lon="5.00585">
        <ele>263.06</ele>
        <time>2020-06-19T12:17:46Z</time>
      </trkpt>
      <trkpt lat="49.62989" lon="5.00586">
        <ele>263.06</ele>
        <time>2020-06-19T12:18:09Z</time>
      </trkpt>
      <trkpt lat="49.62989" lon="5.00586">
        <ele>263.06</ele>
        <time>2020-06-19T12:18:10Z</time>
      </trkpt>
      <trkpt lat="49.62997" lon="5.00599">
        <ele>264.02</ele>
        <time>2020-06-19T12:18:23Z</time>
      </trkpt>
      <trkpt lat="49.63004" lon="5.00612">
        <ele>264.98</ele>
        <time>2020-06-19T12:18:34Z</time>
      </trkpt>
      <trkpt lat="49.6301" lon="5.0062">
        <ele>266.9</ele>
        <time>2020-06-19T12:18:45Z</time>
      </trkpt>
      <trkpt lat="49.63015" lon="5.00627">
        <ele>266.9</ele>
        <time>2020-06-19T12:18:55Z</time>
      </trkpt>
      <trkpt lat="49.6302" lon="5.00632">
        <ele>266.9</ele>
        <time>2020-06-19T12:19:06Z</time>
      </trkpt>
      <trkpt lat="49.63025" lon="5.0064">
        <ele>266.9</ele>
        <time>2020-06-19T12:19:16Z</time>
      </trkpt>
      <trkpt lat="49.63032" lon="5.00652">
        <ele>266.9</ele>
        <time>2020-06-19T12:19:29Z</time>
      </trkpt>
      <trkpt lat="49.63032" lon="5.00653">
        <ele>266.9</ele>
        <time>2020-06-19T12:19:31Z</time>
      </trkpt>
      <trkpt lat="49.63037" lon="5.00662">
        <ele>266.9</ele>
        <time>2020-06-19T12:19:39Z</time>
      </trkpt>
      <trkpt lat="49.63041" lon="5.00667">
        <ele>266.42</ele>
        <time>2020-06-19T12:19:45Z</time>
      </trkpt>
      <trkpt lat="49.63043" lon="5.00674">
        <ele>265.46</ele>
        <time>2020-06-19T12:19:52Z</time>
      </trkpt>
      <trkpt lat="49.63045" lon="5.00681">
        <ele>264.98</ele>
        <time>2020-06-19T12:19:57Z</time>
      </trkpt>
      <trkpt lat="49.63049" lon="5.00686">
        <ele>264.02</ele>
        <time>2020-06-19T12:20:09Z</time>
      </trkpt>
      <trkpt lat="49.63054" lon="5.007">
        <ele>262.58</ele>
        <time>2020-06-19T12:20:20Z</time>
      </trkpt>
      <trkpt lat="49.63055" lon="5.00702">
        <ele>263.06</ele>
        <time>2020-06-19T12:20:22Z</time>
      </trkpt>
      <trkpt lat="49.63059" lon="5.00719">
        <ele>263.54</ele>
        <time>2020-06-19T12:20:36Z</time>
      </trkpt>
      <trkpt lat="49.63064" lon="5.00729">
        <ele>262.58</ele>
        <time>2020-06-19T12:20:46Z</time>
      </trkpt>
      <trkpt lat="49.63069" lon="5.00745">
        <ele>262.58</ele>
        <time>2020-06-19T12:21:00Z</time>
      </trkpt>
      <trkpt lat="49.63073" lon="5.00751">
        <ele>261.62</ele>
        <time>2020-06-19T12:21:12Z</time>
      </trkpt>
      <trkpt lat="49.63073" lon="5.00752">
        <ele>261.62</ele>
        <time>2020-06-19T12:21:16Z</time>
      </trkpt>
      <trkpt lat="49.63076" lon="5.00758">
        <ele>260.17</ele>
        <time>2020-06-19T12:21:31Z</time>
      </trkpt>
      <trkpt lat="49.63086" lon="5.00781">
        <ele>257.77</ele>
        <time>2020-06-19T12:21:47Z</time>
      </trkpt>
      <trkpt lat="49.63093" lon="5.00799">
        <ele>256.81</ele>
        <time>2020-06-19T12:22:01Z</time>
      </trkpt>
      <trkpt lat="49.63098" lon="5.00818">
        <ele>257.29</ele>
        <time>2020-06-19T12:22:17Z</time>
      </trkpt>
      <trkpt lat="49.63106" lon="5.00837">
        <ele>257.29</ele>
        <time>2020-06-19T12:22:32Z</time>
      </trkpt>
      <trkpt lat="49.63112" lon="5.00847">
        <ele>257.77</ele>
        <time>2020-06-19T12:22:45Z</time>
      </trkpt>
      <trkpt lat="49.6312" lon="5.0086">
        <ele>256.81</ele>
        <time>2020-06-19T12:22:58Z</time>
      </trkpt>
      <trkpt lat="49.63125" lon="5.00875">
        <ele>253.44</ele>
        <time>2020-06-19T12:23:09Z</time>
      </trkpt>
      <trkpt lat="49.63124" lon="5.00892">
        <ele>251.52</ele>
        <time>2020-06-19T12:23:24Z</time>
      </trkpt>
      <trkpt lat="49.6313" lon="5.00908">
        <ele>250.08</ele>
        <time>2020-06-19T12:23:37Z</time>
      </trkpt>
      <trkpt lat="49.6314" lon="5.00919">
        <ele>248.16</ele>
        <time>2020-06-19T12:23:50Z</time>
      </trkpt>
      <trkpt lat="49.6314" lon="5.00919">
        <ele>248.16</ele>
        <time>2020-06-19T12:23:51Z</time>
      </trkpt>
      <trkpt lat="49.63144" lon="5.00925">
        <ele>247.2</ele>
        <time>2020-06-19T12:23:56Z</time>
      </trkpt>
      <trkpt lat="49.63154" lon="5.0094">
        <ele>245.75</ele>
        <time>2020-06-19T12:24:10Z</time>
      </trkpt>
      <trkpt lat="49.6316" lon="5.00949">
        <ele>244.79</ele>
        <time>2020-06-19T12:24:21Z</time>
      </trkpt>
      <trkpt lat="49.6317" lon="5.00964">
        <ele>241.91</ele>
        <time>2020-06-19T12:24:35Z</time>
      </trkpt>
      <trkpt lat="49.63181" lon="5.00976">
        <ele>239.51</ele>
        <time>2020-06-19T12:24:50Z</time>
      </trkpt>
      <trkpt lat="49.63183" lon="5.00978">
        <ele>238.54</ele>
        <time>2020-06-19T12:24:52Z</time>
      </trkpt>
      <trkpt lat="49.63192" lon="5.00983">
        <ele>237.1</ele>
        <time>2020-06-19T12:25:05Z</time>
      </trkpt>
      <trkpt lat="49.632" lon="5.00993">
        <ele>234.22</ele>
        <time>2020-06-19T12:25:19Z</time>
      </trkpt>
      <trkpt lat="49.63212" lon="5.01002">
        <ele>232.3</ele>
        <time>2020-06-19T12:25:33Z</time>
      </trkpt>
      <trkpt lat="49.63221" lon="5.01006">
        <ele>231.33</ele>
        <time>2020-06-19T12:25:44Z</time>
      </trkpt>
      <trkpt lat="49.63229" lon="5.01012">
        <ele>230.37</ele>
        <time>2020-06-19T12:25:52Z</time>
      </trkpt>
      <trkpt lat="49.63243" lon="5.0102">
        <ele>229.89</ele>
        <time>2020-06-19T12:26:08Z</time>
      </trkpt>
      <trkpt lat="49.63255" lon="5.01023">
        <ele>227.49</ele>
        <time>2020-06-19T12:26:22Z</time>
      </trkpt>
      <trkpt lat="49.63258" lon="5.01025">
        <ele>226.53</ele>
        <time>2020-06-19T12:26:28Z</time>
      </trkpt>
      <trkpt lat="49.6327" lon="5.01029">
        <ele>225.09</ele>
        <time>2020-06-19T12:26:42Z</time>
      </trkpt>
      <trkpt lat="49.6328" lon="5.01033">
        <ele>222.68</ele>
        <time>2020-06-19T12:26:55Z</time>
      </trkpt>
      <trkpt lat="49.63289" lon="5.01038">
        <ele>220.76</ele>
        <time>2020-06-19T12:27:07Z</time>
      </trkpt>
      <trkpt lat="49.6329" lon="5.01038">
        <ele>220.76</ele>
        <time>2020-06-19T12:27:14Z</time>
      </trkpt>
      <trkpt lat="49.63301" lon="5.01044">
        <ele>218.36</ele>
        <time>2020-06-19T12:27:28Z</time>
      </trkpt>
      <trkpt lat="49.63314" lon="5.01052">
        <ele>214.99</ele>
        <time>2020-06-19T12:27:42Z</time>
      </trkpt>
      <trkpt lat="49.63315" lon="5.01053">
        <ele>214.99</ele>
        <time>2020-06-19T12:27:43Z</time>
      </trkpt>
      <trkpt lat="49.63329" lon="5.01061">
        <ele>213.07</ele>
        <time>2020-06-19T12:27:58Z</time>
      </trkpt>
      <trkpt lat="49.63338" lon="5.01064">
        <ele>210.19</ele>
        <time>2020-06-19T12:28:12Z</time>
      </trkpt>
      <trkpt lat="49.6335" lon="5.0107">
        <ele>208.26</ele>
        <time>2020-06-19T12:28:27Z</time>
      </trkpt>
      <trkpt lat="49.63363" lon="5.01078">
        <ele>204.9</ele>
        <time>2020-06-19T12:28:40Z</time>
      </trkpt>
      <trkpt lat="49.63377" lon="5.01083">
        <ele>202.98</ele>
        <time>2020-06-19T12:28:54Z</time>
      </trkpt>
      <trkpt lat="49.6339" lon="5.01092">
        <ele>202.49</ele>
        <time>2020-06-19T12:29:09Z</time>
      </trkpt>
      <trkpt lat="49.63395" lon="5.01095">
        <ele>202.98</ele>
        <time>2020-06-19T12:29:13Z</time>
      </trkpt>
      <trkpt lat="49.63398" lon="5.01095">
        <ele>203.94</ele>
        <time>2020-06-19T12:29:17Z</time>
      </trkpt>
      <trkpt lat="49.63411" lon="5.01099">
        <ele>205.38</ele>
        <time>2020-06-19T12:29:29Z</time>
      </trkpt>
      <trkpt lat="49.63424" lon="5.01107">
        <ele>206.34</ele>
        <time>2020-06-19T12:29:42Z</time>
      </trkpt>
      <trkpt lat="49.63437" lon="5.01115">
        <ele>207.3</ele>
        <time>2020-06-19T12:29:56Z</time>
      </trkpt>
      <trkpt lat="49.6344" lon="5.01118">
        <ele>207.3</ele>
        <time>2020-06-19T12:29:59Z</time>
      </trkpt>
      <trkpt lat="49.63454" lon="5.01125">
        <ele>207.3</ele>
        <time>2020-06-19T12:30:14Z</time>
      </trkpt>
      <trkpt lat="49.63455" lon="5.01125">
        <ele>207.3</ele>
        <time>2020-06-19T12:30:16Z</time>
      </trkpt>
      <trkpt lat="49.63465" lon="5.01132">
        <ele>210.19</ele>
        <time>2020-06-19T12:30:29Z</time>
      </trkpt>
      <trkpt lat="49.63475" lon="5.01138">
        <ele>212.11</ele>
        <time>2020-06-19T12:30:41Z</time>
      </trkpt>
      <trkpt lat="49.63486" lon="5.01146">
        <ele>211.15</ele>
        <time>2020-06-19T12:30:55Z</time>
      </trkpt>
      <trkpt lat="49.63501" lon="5.01157">
        <ele>209.22</ele>
        <time>2020-06-19T12:31:08Z</time>
      </trkpt>
      <trkpt lat="49.63513" lon="5.01165">
        <ele>207.78</ele>
        <time>2020-06-19T12:31:22Z</time>
      </trkpt>
      <trkpt lat="49.63524" lon="5.01173">
        <ele>206.82</ele>
        <time>2020-06-19T12:31:37Z</time>
      </trkpt>
      <trkpt lat="49.63529" lon="5.01176">
        <ele>206.34</ele>
        <time>2020-06-19T12:31:42Z</time>
      </trkpt>
      <trkpt lat="49.63546" lon="5.01187">
        <ele>203.94</ele>
        <time>2020-06-19T12:31:57Z</time>
      </trkpt>
      <trkpt lat="49.63557" lon="5.01196">
        <ele>203.46</ele>
        <time>2020-06-19T12:32:11Z</time>
      </trkpt>
      <trkpt lat="49.63569" lon="5.01206">
        <ele>200.57</ele>
        <time>2020-06-19T12:32:25Z</time>
      </trkpt>
      <trkpt lat="49.63579" lon="5.01214">
        <ele>200.57</ele>
        <time>2020-06-19T12:32:39Z</time>
      </trkpt>
      <trkpt lat="49.63588" lon="5.0122">
        <ele>200.09</ele>
        <time>2020-06-19T12:32:51Z</time>
      </trkpt>
      <trkpt lat="49.636" lon="5.0123">
        <ele>199.61</ele>
        <time>2020-06-19T12:33:05Z</time>
      </trkpt>
      <trkpt lat="49.6361" lon="5.01235">
        <ele>197.69</ele>
        <time>2020-06-19T12:33:15Z</time>
      </trkpt>
      <trkpt lat="49.63622" lon="5.01242">
        <ele>196.25</ele>
        <time>2020-06-19T12:33:28Z</time>
      </trkpt>
      <trkpt lat="49.63626" lon="5.01247">
        <ele>195.77</ele>
        <time>2020-06-19T12:33:38Z</time>
      </trkpt>
      <trkpt lat="49.6363" lon="5.01253">
        <ele>195.77</ele>
        <time>2020-06-19T12:33:42Z</time>
      </trkpt>
      <trkpt lat="49.63639" lon="5.01261">
        <ele>195.77</ele>
        <time>2020-06-19T12:33:54Z</time>
      </trkpt>
      <trkpt lat="49.63639" lon="5.01261">
        <ele>195.77</ele>
        <time>2020-06-19T12:33:55Z</time>
      </trkpt>
      <trkpt lat="49.63654" lon="5.01277">
        <ele>195.28</ele>
        <time>2020-06-19T12:34:10Z</time>
      </trkpt>
      <trkpt lat="49.63664" lon="5.01285">
        <ele>194.8</ele>
        <time>2020-06-19T12:34:22Z</time>
      </trkpt>
      <trkpt lat="49.63675" lon="5.01295">
        <ele>194.32</ele>
        <time>2020-06-19T12:34:35Z</time>
      </trkpt>
      <trkpt lat="49.63687" lon="5.01306">
        <ele>193.84</ele>
        <time>2020-06-19T12:34:49Z</time>
      </trkpt>
      <trkpt lat="49.63692" lon="5.01312">
        <ele>192.88</ele>
        <time>2020-06-19T12:34:56Z</time>
      </trkpt>
      <trkpt lat="49.63697" lon="5.01319">
        <ele>192.4</ele>
        <time>2020-06-19T12:35:06Z</time>
      </trkpt>
      <trkpt lat="49.63709" lon="5.01333">
        <ele>191.92</ele>
        <time>2020-06-19T12:35:20Z</time>
      </trkpt>
      <trkpt lat="49.63713" lon="5.01339">
        <ele>191.92</ele>
        <time>2020-06-19T12:35:25Z</time>
      </trkpt>
      <trkpt lat="49.63724" lon="5.01348">
        <ele>190.96</ele>
        <time>2020-06-19T12:35:35Z</time>
      </trkpt>
      <trkpt lat="49.63736" lon="5.0136">
        <ele>191.44</ele>
        <time>2020-06-19T12:35:49Z</time>
      </trkpt>
      <trkpt lat="49.63752" lon="5.01374">
        <ele>192.88</ele>
        <time>2020-06-19T12:36:06Z</time>
      </trkpt>
      <trkpt lat="49.63764" lon="5.01381">
        <ele>189.52</ele>
        <time>2020-06-19T12:36:16Z</time>
      </trkpt>
      <trkpt lat="49.63779" lon="5.01387">
        <ele>185.19</ele>
        <time>2020-06-19T12:36:31Z</time>
      </trkpt>
      <trkpt lat="49.63795" lon="5.01387">
        <ele>180.38</ele>
        <time>2020-06-19T12:36:46Z</time>
      </trkpt>
      <trkpt lat="49.6381" lon="5.01384">
        <ele>179.42</ele>
        <time>2020-06-19T12:37:00Z</time>
      </trkpt>
      <trkpt lat="49.63825" lon="5.01377">
        <ele>177.98</ele>
        <time>2020-06-19T12:37:15Z</time>
      </trkpt>
      <trkpt lat="49.63835" lon="5.01372">
        <ele>172.69</ele>
        <time>2020-06-19T12:37:28Z</time>
      </trkpt>
      <trkpt lat="49.63845" lon="5.01366">
        <ele>169.33</ele>
        <time>2020-06-19T12:37:40Z</time>
      </trkpt>
      <trkpt lat="49.63851" lon="5.01367">
        <ele>169.81</ele>
        <time>2020-06-19T12:37:46Z</time>
      </trkpt>
      <trkpt lat="49.63854" lon="5.01366">
        <ele>170.29</ele>
        <time>2020-06-19T12:37:48Z</time>
      </trkpt>
      <trkpt lat="49.63857" lon="5.01364">
        <ele>171.73</ele>
        <time>2020-06-19T12:37:55Z</time>
      </trkpt>
      <trkpt lat="49.63864" lon="5.01364">
        <ele>171.73</ele>
        <time>2020-06-19T12:38:00Z</time>
      </trkpt>
      <trkpt lat="49.63875" lon="5.01364">
        <ele>174.14</ele>
        <time>2020-06-19T12:38:12Z</time>
      </trkpt>
      <trkpt lat="49.6389" lon="5.01365">
        <ele>177.02</ele>
        <time>2020-06-19T12:38:27Z</time>
      </trkpt>
      <trkpt lat="49.63897" lon="5.01362">
        <ele>176.54</ele>
        <time>2020-06-19T12:38:37Z</time>
      </trkpt>
      <trkpt lat="49.63899" lon="5.01363">
        <ele>176.06</ele>
        <time>2020-06-19T12:38:39Z</time>
      </trkpt>
      <trkpt lat="49.63911" lon="5.01362">
        <ele>177.02</ele>
        <time>2020-06-19T12:38:53Z</time>
      </trkpt>
      <trkpt lat="49.63925" lon="5.01363">
        <ele>178.94</ele>
        <time>2020-06-19T12:39:07Z</time>
      </trkpt>
      <trkpt lat="49.63927" lon="5.01363">
        <ele>178.46</ele>
        <time>2020-06-19T12:39:10Z</time>
      </trkpt>
      <trkpt lat="49.63933" lon="5.01364">
        <ele>177.98</ele>
        <time>2020-06-19T12:39:15Z</time>
      </trkpt>
      <trkpt lat="49.63948" lon="5.01362">
        <ele>175.58</ele>
        <time>2020-06-19T12:39:29Z</time>
      </trkpt>
      <trkpt lat="49.63961" lon="5.0136">
        <ele>174.62</ele>
        <time>2020-06-19T12:39:42Z</time>
      </trkpt>
      <trkpt lat="49.63976" lon="5.01361">
        <ele>172.69</ele>
        <time>2020-06-19T12:39:56Z</time>
      </trkpt>
      <trkpt lat="49.63978" lon="5.01362">
        <ele>171.73</ele>
        <time>2020-06-19T12:40:00Z</time>
      </trkpt>
      <trkpt lat="49.6399" lon="5.01371">
        <ele>166.45</ele>
        <time>2020-06-19T12:40:15Z</time>
      </trkpt>
      <trkpt lat="49.64001" lon="5.01381">
        <ele>164.52</ele>
        <time>2020-06-19T12:40:28Z</time>
      </trkpt>
      <trkpt lat="49.64011" lon="5.01396">
        <ele>163.56</ele>
        <time>2020-06-19T12:40:42Z</time>
      </trkpt>
      <trkpt lat="49.64013" lon="5.014">
        <ele>163.56</ele>
        <time>2020-06-19T12:40:44Z</time>
      </trkpt>
      <trkpt lat="49.64017" lon="5.01405">
        <ele>164.04</ele>
        <time>2020-06-19T12:40:48Z</time>
      </trkpt>
      <trkpt lat="49.64022" lon="5.01413">
        <ele>163.56</ele>
        <time>2020-06-19T12:40:57Z</time>
      </trkpt>
      <trkpt lat="49.64024" lon="5.01415">
        <ele>163.56</ele>
        <time>2020-06-19T12:40:59Z</time>
      </trkpt>
      <trkpt lat="49.64033" lon="5.01431">
        <ele>163.08</ele>
        <time>2020-06-19T12:41:13Z</time>
      </trkpt>
      <trkpt lat="49.64035" lon="5.01437">
        <ele>163.08</ele>
        <time>2020-06-19T12:41:18Z</time>
      </trkpt>
      <trkpt lat="49.64044" lon="5.01455">
        <ele>163.08</ele>
        <time>2020-06-19T12:41:31Z</time>
      </trkpt>
      <trkpt lat="49.64051" lon="5.01471">
        <ele>163.08</ele>
        <time>2020-06-19T12:41:44Z</time>
      </trkpt>
      <trkpt lat="49.64056" lon="5.01487">
        <ele>162.12</ele>
        <time>2020-06-19T12:41:57Z</time>
      </trkpt>
      <trkpt lat="49.64064" lon="5.01507">
        <ele>162.12</ele>
        <time>2020-06-19T12:42:11Z</time>
      </trkpt>
      <trkpt lat="49.64076" lon="5.01517">
        <ele>163.08</ele>
        <time>2020-06-19T12:42:25Z</time>
      </trkpt>
      <trkpt lat="49.64078" lon="5.01517">
        <ele>163.08</ele>
        <time>2020-06-19T12:42:27Z</time>
      </trkpt>
      <trkpt lat="49.64093" lon="5.01514">
        <ele>163.56</ele>
        <time>2020-06-19T12:42:42Z</time>
      </trkpt>
      <trkpt lat="49.64096" lon="5.01512">
        <ele>163.56</ele>
        <time>2020-06-19T12:42:45Z</time>
      </trkpt>
      <trkpt lat="49.64109" lon="5.01508">
        <ele>162.12</ele>
        <time>2020-06-19T12:42:58Z</time>
      </trkpt>
      <trkpt lat="49.6412" lon="5.01503">
        <ele>159.72</ele>
        <time>2020-06-19T12:43:13Z</time>
      </trkpt>
      <trkpt lat="49.64122" lon="5.01503">
        <ele>159.72</ele>
        <time>2020-06-19T12:43:15Z</time>
      </trkpt>
      <trkpt lat="49.64126" lon="5.01503">
        <ele>159.24</ele>
        <time>2020-06-19T12:43:18Z</time>
      </trkpt>
      <trkpt lat="49.64142" lon="5.01496">
        <ele>157.31</ele>
        <time>2020-06-19T12:43:32Z</time>
      </trkpt>
      <trkpt lat="49.64147" lon="5.01495">
        <ele>157.31</ele>
        <time>2020-06-19T12:43:37Z</time>
      </trkpt>
      <trkpt lat="49.64162" lon="5.0149">
        <ele>157.31</ele>
        <time>2020-06-19T12:43:51Z</time>
      </trkpt>
      <trkpt lat="49.64179" lon="5.01484">
        <ele>157.31</ele>
        <time>2020-06-19T12:44:06Z</time>
      </trkpt>
      <trkpt lat="49.64192" lon="5.01478">
        <ele>156.83</ele>
        <time>2020-06-19T12:44:19Z</time>
      </trkpt>
      <trkpt lat="49.64206" lon="5.0147">
        <ele>157.31</ele>
        <time>2020-06-19T12:44:33Z</time>
      </trkpt>
      <trkpt lat="49.64218" lon="5.0146">
        <ele>159.72</ele>
        <time>2020-06-19T12:44:47Z</time>
      </trkpt>
      <trkpt lat="49.64229" lon="5.01449">
        <ele>159.24</ele>
        <time>2020-06-19T12:45:01Z</time>
      </trkpt>
      <trkpt lat="49.64241" lon="5.01436">
        <ele>160.2</ele>
        <time>2020-06-19T12:45:15Z</time>
      </trkpt>
      <trkpt lat="49.64251" lon="5.01425">
        <ele>160.68</ele>
        <time>2020-06-19T12:45:28Z</time>
      </trkpt>
      <trkpt lat="49.64263" lon="5.01412">
        <ele>160.68</ele>
        <time>2020-06-19T12:45:42Z</time>
      </trkpt>
      <trkpt lat="49.64272" lon="5.01403">
        <ele>161.64</ele>
        <time>2020-06-19T12:45:52Z</time>
      </trkpt>
      <trkpt lat="49.64276" lon="5.01397">
        <ele>162.12</ele>
        <time>2020-06-19T12:45:57Z</time>
      </trkpt>
      <trkpt lat="49.64288" lon="5.01379">
        <ele>163.08</ele>
        <time>2020-06-19T12:46:14Z</time>
      </trkpt>
      <trkpt lat="49.64289" lon="5.01379">
        <ele>163.08</ele>
        <time>2020-06-19T12:46:15Z</time>
      </trkpt>
      <trkpt lat="49.64294" lon="5.01375">
        <ele>162.6</ele>
        <time>2020-06-19T12:46:20Z</time>
      </trkpt>
      <trkpt lat="49.64308" lon="5.01365">
        <ele>162.6</ele>
        <time>2020-06-19T12:46:35Z</time>
      </trkpt>
      <trkpt lat="49.64309" lon="5.01364">
        <ele>162.6</ele>
        <time>2020-06-19T12:46:36Z</time>
      </trkpt>
      <trkpt lat="49.64317" lon="5.0136">
        <ele>163.08</ele>
        <time>2020-06-19T12:46:46Z</time>
      </trkpt>
      <trkpt lat="49.6433" lon="5.01352">
        <ele>165.48</ele>
        <time>2020-06-19T12:46:58Z</time>
      </trkpt>
      <trkpt lat="49.64331" lon="5.01351">
        <ele>165.96</ele>
        <time>2020-06-19T12:47:00Z</time>
      </trkpt>
      <trkpt lat="49.64341" lon="5.01346">
        <ele>166.45</ele>
        <time>2020-06-19T12:47:08Z</time>
      </trkpt>
      <trkpt lat="49.64346" lon="5.01335">
        <ele>165</ele>
        <time>2020-06-19T12:47:24Z</time>
      </trkpt>
      <trkpt lat="49.64347" lon="5.01333">
        <ele>165.48</ele>
        <time>2020-06-19T12:47:37Z</time>
      </trkpt>
      <trkpt lat="49.64347" lon="5.01333">
        <ele>165.96</ele>
        <time>2020-06-19T12:47:39Z</time>
      </trkpt>
      <trkpt lat="49.64358" lon="5.0132">
        <ele>165.48</ele>
        <time>2020-06-19T12:47:54Z</time>
      </trkpt>
      <trkpt lat="49.64364" lon="5.01309">
        <ele>163.56</ele>
        <time>2020-06-19T12:48:05Z</time>
      </trkpt>
      <trkpt lat="49.64372" lon="5.01292">
        <ele>162.6</ele>
        <time>2020-06-19T12:48:19Z</time>
      </trkpt>
      <trkpt lat="49.64375" lon="5.01282">
        <ele>163.08</ele>
        <time>2020-06-19T12:48:26Z</time>
      </trkpt>
      <trkpt lat="49.64381" lon="5.01269">
        <ele>165.96</ele>
        <time>2020-06-19T12:48:38Z</time>
      </trkpt>
      <trkpt lat="49.6439" lon="5.01256">
        <ele>167.41</ele>
        <time>2020-06-19T12:48:51Z</time>
      </trkpt>
      <trkpt lat="49.64392" lon="5.01254">
        <ele>167.89</ele>
        <time>2020-06-19T12:48:53Z</time>
      </trkpt>
      <trkpt lat="49.64404" lon="5.01233">
        <ele>165.48</ele>
        <time>2020-06-19T12:49:08Z</time>
      </trkpt>
      <trkpt lat="49.64415" lon="5.01213">
        <ele>163.08</ele>
        <time>2020-06-19T12:49:22Z</time>
      </trkpt>
      <trkpt lat="49.6442" lon="5.01206">
        <ele>162.12</ele>
        <time>2020-06-19T12:49:30Z</time>
      </trkpt>
      <trkpt lat="49.64424" lon="5.01202">
        <ele>162.6</ele>
        <time>2020-06-19T12:49:34Z</time>
      </trkpt>
      <trkpt lat="49.64435" lon="5.01184">
        <ele>163.08</ele>
        <time>2020-06-19T12:49:49Z</time>
      </trkpt>
      <trkpt lat="49.64436" lon="5.01182">
        <ele>163.56</ele>
        <time>2020-06-19T12:49:50Z</time>
      </trkpt>
      <trkpt lat="49.64442" lon="5.01165">
        <ele>161.64</ele>
        <time>2020-06-19T12:50:03Z</time>
      </trkpt>
      <trkpt lat="49.64443" lon="5.01162">
        <ele>161.64</ele>
        <time>2020-06-19T12:50:05Z</time>
      </trkpt>
      <trkpt lat="49.64453" lon="5.01142">
        <ele>160.2</ele>
        <time>2020-06-19T12:50:20Z</time>
      </trkpt>
      <trkpt lat="49.64462" lon="5.01124">
        <ele>158.75</ele>
        <time>2020-06-19T12:50:35Z</time>
      </trkpt>
      <trkpt lat="49.64472" lon="5.01105">
        <ele>158.27</ele>
        <time>2020-06-19T12:50:50Z</time>
      </trkpt>
      <trkpt lat="49.64476" lon="5.01096">
        <ele>158.27</ele>
        <time>2020-06-19T12:51:01Z</time>
      </trkpt>
      <trkpt lat="49.64479" lon="5.01096">
        <ele>158.75</ele>
        <time>2020-06-19T12:51:05Z</time>
      </trkpt>
      <trkpt lat="49.64488" lon="5.01081">
        <ele>158.27</ele>
        <time>2020-06-19T12:51:19Z</time>
      </trkpt>
      <trkpt lat="49.64493" lon="5.01073">
        <ele>159.24</ele>
        <time>2020-06-19T12:51:26Z</time>
      </trkpt>
      <trkpt lat="49.64503" lon="5.01071">
        <ele>161.64</ele>
        <time>2020-06-19T12:51:39Z</time>
      </trkpt>
      <trkpt lat="49.64507" lon="5.01075">
        <ele>161.16</ele>
        <time>2020-06-19T12:51:44Z</time>
      </trkpt>
      <trkpt lat="49.64515" lon="5.0108">
        <ele>160.2</ele>
        <time>2020-06-19T12:51:55Z</time>
      </trkpt>
      <trkpt lat="49.64528" lon="5.01096">
        <ele>162.12</ele>
        <time>2020-06-19T12:52:11Z</time>
      </trkpt>
      <trkpt lat="49.64542" lon="5.01113">
        <ele>164.04</ele>
        <time>2020-06-19T12:52:27Z</time>
      </trkpt>
      <trkpt lat="49.64552" lon="5.01124">
        <ele>162.6</ele>
        <time>2020-06-19T12:52:42Z</time>
      </trkpt>
      <trkpt lat="49.64562" lon="5.01144">
        <ele>163.56</ele>
        <time>2020-06-19T12:52:58Z</time>
      </trkpt>
      <trkpt lat="49.64566" lon="5.01147">
        <ele>162.6</ele>
        <time>2020-06-19T12:53:08Z</time>
      </trkpt>
      <trkpt lat="49.64581" lon="5.01136">
        <ele>160.68</ele>
        <time>2020-06-19T12:53:24Z</time>
      </trkpt>
      <trkpt lat="49.64581" lon="5.01135">
        <ele>160.68</ele>
        <time>2020-06-19T12:53:25Z</time>
      </trkpt>
      <trkpt lat="49.64588" lon="5.01123">
        <ele>159.24</ele>
        <time>2020-06-19T12:53:36Z</time>
      </trkpt>
      <trkpt lat="49.64594" lon="5.01114">
        <ele>160.68</ele>
        <time>2020-06-19T12:53:51Z</time>
      </trkpt>
      <trkpt lat="49.64594" lon="5.01116">
        <ele>161.16</ele>
        <time>2020-06-19T12:54:14Z</time>
      </trkpt>
      <trkpt lat="49.64593" lon="5.01116">
        <ele>161.16</ele>
        <time>2020-06-19T12:54:17Z</time>
      </trkpt>
      <trkpt lat="49.64589" lon="5.01123">
        <ele>160.68</ele>
        <time>2020-06-19T12:54:22Z</time>
      </trkpt>
      <trkpt lat="49.64586" lon="5.01127">
        <ele>159.72</ele>
        <time>2020-06-19T12:54:27Z</time>
      </trkpt>
      <trkpt lat="49.64573" lon="5.0114">
        <ele>158.27</ele>
        <time>2020-06-19T12:54:42Z</time>
      </trkpt>
      <trkpt lat="49.64563" lon="5.01157">
        <ele>158.27</ele>
        <time>2020-06-19T12:54:56Z</time>
      </trkpt>
      <trkpt lat="49.64559" lon="5.01168">
        <ele>158.75</ele>
        <time>2020-06-19T12:55:08Z</time>
      </trkpt>
      <trkpt lat="49.64557" lon="5.01177">
        <ele>158.27</ele>
        <time>2020-06-19T12:55:22Z</time>
      </trkpt>
      <trkpt lat="49.64555" lon="5.01179">
        <ele>157.79</ele>
        <time>2020-06-19T12:55:24Z</time>
      </trkpt>
      <trkpt lat="49.64544" lon="5.01201">
        <ele>158.27</ele>
        <time>2020-06-19T12:55:43Z</time>
      </trkpt>
      <trkpt lat="49.64537" lon="5.01224">
        <ele>156.83</ele>
        <time>2020-06-19T12:55:58Z</time>
      </trkpt>
      <trkpt lat="49.64527" lon="5.01244">
        <ele>156.35</ele>
        <time>2020-06-19T12:56:14Z</time>
      </trkpt>
      <trkpt lat="49.64519" lon="5.0127">
        <ele>153.95</ele>
        <time>2020-06-19T12:56:32Z</time>
      </trkpt>
      <trkpt lat="49.64512" lon="5.01285">
        <ele>153.95</ele>
        <time>2020-06-19T12:56:44Z</time>
      </trkpt>
      <trkpt lat="49.64504" lon="5.01309">
        <ele>152.03</ele>
        <time>2020-06-19T12:57:00Z</time>
      </trkpt>
      <trkpt lat="49.64502" lon="5.01314">
        <ele>152.03</ele>
        <time>2020-06-19T12:57:03Z</time>
      </trkpt>
      <trkpt lat="49.64496" lon="5.01336">
        <ele>152.51</ele>
        <time>2020-06-19T12:57:18Z</time>
      </trkpt>
      <trkpt lat="49.64487" lon="5.01358">
        <ele>152.99</ele>
        <time>2020-06-19T12:57:35Z</time>
      </trkpt>
      <trkpt lat="49.64485" lon="5.0138">
        <ele>152.99</ele>
        <time>2020-06-19T12:57:50Z</time>
      </trkpt>
      <trkpt lat="49.64488" lon="5.01388">
        <ele>153.47</ele>
        <time>2020-06-19T12:57:55Z</time>
      </trkpt>
      <trkpt lat="49.64495" lon="5.01402">
        <ele>156.35</ele>
        <time>2020-06-19T12:58:05Z</time>
      </trkpt>
      <trkpt lat="49.64509" lon="5.0142">
        <ele>159.72</ele>
        <time>2020-06-19T12:58:21Z</time>
      </trkpt>
      <trkpt lat="49.64525" lon="5.01435">
        <ele>161.16</ele>
        <time>2020-06-19T12:58:38Z</time>
      </trkpt>
      <trkpt lat="49.64537" lon="5.01445">
        <ele>159.24</ele>
        <time>2020-06-19T12:58:51Z</time>
      </trkpt>
      <trkpt lat="49.6455" lon="5.01459">
        <ele>160.2</ele>
        <time>2020-06-19T12:59:06Z</time>
      </trkpt>
      <trkpt lat="49.64558" lon="5.01468">
        <ele>161.16</ele>
        <time>2020-06-19T12:59:18Z</time>
      </trkpt>
      <trkpt lat="49.64571" lon="5.01482">
        <ele>166.45</ele>
        <time>2020-06-19T12:59:33Z</time>
      </trkpt>
      <trkpt lat="49.64583" lon="5.01492">
        <ele>169.81</ele>
        <time>2020-06-19T12:59:46Z</time>
      </trkpt>
      <trkpt lat="49.64598" lon="5.015">
        <ele>173.17</ele>
        <time>2020-06-19T13:00:01Z</time>
      </trkpt>
      <trkpt lat="49.64614" lon="5.01507">
        <ele>173.66</ele>
        <time>2020-06-19T13:00:17Z</time>
      </trkpt>
      <trkpt lat="49.64628" lon="5.01519">
        <ele>175.1</ele>
        <time>2020-06-19T13:00:32Z</time>
      </trkpt>
      <trkpt lat="49.64639" lon="5.01526">
        <ele>174.62</ele>
        <time>2020-06-19T13:00:45Z</time>
      </trkpt>
      <trkpt lat="49.64658" lon="5.01529">
        <ele>173.17</ele>
        <time>2020-06-19T13:01:03Z</time>
      </trkpt>
      <trkpt lat="49.64674" lon="5.01535">
        <ele>174.14</ele>
        <time>2020-06-19T13:01:19Z</time>
      </trkpt>
      <trkpt lat="49.64678" lon="5.01538">
        <ele>174.62</ele>
        <time>2020-06-19T13:01:22Z</time>
      </trkpt>
      <trkpt lat="49.64695" lon="5.01546">
        <ele>175.58</ele>
        <time>2020-06-19T13:01:40Z</time>
      </trkpt>
      <trkpt lat="49.64714" lon="5.0155">
        <ele>176.06</ele>
        <time>2020-06-19T13:01:57Z</time>
      </trkpt>
      <trkpt lat="49.64729" lon="5.01562">
        <ele>176.06</ele>
        <time>2020-06-19T13:02:14Z</time>
      </trkpt>
      <trkpt lat="49.64731" lon="5.01576">
        <ele>174.14</ele>
        <time>2020-06-19T13:02:21Z</time>
      </trkpt>
      <trkpt lat="49.64732" lon="5.01602">
        <ele>169.33</ele>
        <time>2020-06-19T13:02:38Z</time>
      </trkpt>
      <trkpt lat="49.64733" lon="5.01629">
        <ele>165.96</ele>
        <time>2020-06-19T13:02:55Z</time>
      </trkpt>
      <trkpt lat="49.64739" lon="5.01649">
        <ele>163.08</ele>
        <time>2020-06-19T13:03:08Z</time>
      </trkpt>
      <trkpt lat="49.64752" lon="5.01662">
        <ele>165</ele>
        <time>2020-06-19T13:03:24Z</time>
      </trkpt>
      <trkpt lat="49.64754" lon="5.01665">
        <ele>164.52</ele>
        <time>2020-06-19T13:03:38Z</time>
      </trkpt>
      <trkpt lat="49.64754" lon="5.01666">
        <ele>163.56</ele>
        <time>2020-06-19T13:04:03Z</time>
      </trkpt>
      <trkpt lat="49.64754" lon="5.01665">
        <ele>163.56</ele>
        <time>2020-06-19T13:04:26Z</time>
      </trkpt>
      <trkpt lat="49.64754" lon="5.01664">
        <ele>163.56</ele>
        <time>2020-06-19T13:04:58Z</time>
      </trkpt>
      <trkpt lat="49.64755" lon="5.01663">
        <ele>163.08</ele>
        <time>2020-06-19T13:05:29Z</time>
      </trkpt>
      <trkpt lat="49.64755" lon="5.01662">
        <ele>163.08</ele>
        <time>2020-06-19T13:05:59Z</time>
      </trkpt>
      <trkpt lat="49.64756" lon="5.01662">
        <ele>163.08</ele>
        <time>2020-06-19T13:06:29Z</time>
      </trkpt>
      <trkpt lat="49.64756" lon="5.01663">
        <ele>161.64</ele>
        <time>2020-06-19T13:06:45Z</time>
      </trkpt>
      <trkpt lat="49.64757" lon="5.01663">
        <ele>161.16</ele>
        <time>2020-06-19T13:07:13Z</time>
      </trkpt>
      <trkpt lat="49.64756" lon="5.01663">
        <ele>160.68</ele>
        <time>2020-06-19T13:07:37Z</time>
      </trkpt>
      <trkpt lat="49.64756" lon="5.01664">
        <ele>159.72</ele>
        <time>2020-06-19T13:08:01Z</time>
      </trkpt>
      <trkpt lat="49.64755" lon="5.01663">
        <ele>160.2</ele>
        <time>2020-06-19T13:08:22Z</time>
      </trkpt>
      <trkpt lat="49.64755" lon="5.01663">
        <ele>160.2</ele>
        <time>2020-06-19T13:08:50Z</time>
      </trkpt>
      <trkpt lat="49.64755" lon="5.01663">
        <ele>160.68</ele>
        <time>2020-06-19T13:09:19Z</time>
      </trkpt>
      <trkpt lat="49.64755" lon="5.01663">
        <ele>160.2</ele>
        <time>2020-06-19T13:09:51Z</time>
      </trkpt>
      <trkpt lat="49.64755" lon="5.01663">
        <ele>160.2</ele>
        <time>2020-06-19T13:10:20Z</time>
      </trkpt>
      <trkpt lat="49.64755" lon="5.0166">
        <ele>160.2</ele>
        <time>2020-06-19T13:10:47Z</time>
      </trkpt>
      <trkpt lat="49.64759" lon="5.01664">
        <ele>160.68</ele>
        <time>2020-06-19T13:11:12Z</time>
      </trkpt>
      <trkpt lat="49.64757" lon="5.01665">
        <ele>160.2</ele>
        <time>2020-06-19T13:11:24Z</time>
      </trkpt>
      <trkpt lat="49.64756" lon="5.01666">
        <ele>161.16</ele>
        <time>2020-06-19T13:11:57Z</time>
      </trkpt>
      <trkpt lat="49.64757" lon="5.01665">
        <ele>161.64</ele>
        <time>2020-06-19T13:12:14Z</time>
      </trkpt>
      <trkpt lat="49.64756" lon="5.01665">
        <ele>161.16</ele>
        <time>2020-06-19T13:12:38Z</time>
      </trkpt>
      <trkpt lat="49.64756" lon="5.01665">
        <ele>161.16</ele>
        <time>2020-06-19T13:12:59Z</time>
      </trkpt>
      <trkpt lat="49.64756" lon="5.01666">
        <ele>161.16</ele>
        <time>2020-06-19T13:13:28Z</time>
      </trkpt>
      <trkpt lat="49.64756" lon="5.01665">
        <ele>161.64</ele>
        <time>2020-06-19T13:13:46Z</time>
      </trkpt>
      <trkpt lat="49.64755" lon="5.0166">
        <ele>161.64</ele>
        <time>2020-06-19T13:14:02Z</time>
      </trkpt>
      <trkpt lat="49.64755" lon="5.01658">
        <ele>161.16</ele>
        <time>2020-06-19T13:14:04Z</time>
      </trkpt>
      <trkpt lat="49.64761" lon="5.01637">
        <ele>159.24</ele>
        <time>2020-06-19T13:14:19Z</time>
      </trkpt>
      <trkpt lat="49.64766" lon="5.01624">
        <ele>158.75</ele>
        <time>2020-06-19T13:14:30Z</time>
      </trkpt>
      <trkpt lat="49.64772" lon="5.01606">
        <ele>157.79</ele>
        <time>2020-06-19T13:14:45Z</time>
      </trkpt>
      <trkpt lat="49.64778" lon="5.01586">
        <ele>157.31</ele>
        <time>2020-06-19T13:14:58Z</time>
      </trkpt>
      <trkpt lat="49.64782" lon="5.01572">
        <ele>156.35</ele>
        <time>2020-06-19T13:15:09Z</time>
      </trkpt>
      <trkpt lat="49.64788" lon="5.01554">
        <ele>155.87</ele>
        <time>2020-06-19T13:15:21Z</time>
      </trkpt>
      <trkpt lat="49.64793" lon="5.01537">
        <ele>154.91</ele>
        <time>2020-06-19T13:15:33Z</time>
      </trkpt>
      <trkpt lat="49.64799" lon="5.01519">
        <ele>155.87</ele>
        <time>2020-06-19T13:15:46Z</time>
      </trkpt>
      <trkpt lat="49.64803" lon="5.01503">
        <ele>155.87</ele>
        <time>2020-06-19T13:15:58Z</time>
      </trkpt>
      <trkpt lat="49.64808" lon="5.01485">
        <ele>154.91</ele>
        <time>2020-06-19T13:16:10Z</time>
      </trkpt>
      <trkpt lat="49.64814" lon="5.01469">
        <ele>155.39</ele>
        <time>2020-06-19T13:16:22Z</time>
      </trkpt>
      <trkpt lat="49.64819" lon="5.01453">
        <ele>154.43</ele>
        <time>2020-06-19T13:16:34Z</time>
      </trkpt>
      <trkpt lat="49.64824" lon="5.01437">
        <ele>154.91</ele>
        <time>2020-06-19T13:16:45Z</time>
      </trkpt>
      <trkpt lat="49.64826" lon="5.01432">
        <ele>154.91</ele>
        <time>2020-06-19T13:17:00Z</time>
      </trkpt>
      <trkpt lat="49.64828" lon="5.01431">
        <ele>154.91</ele>
        <time>2020-06-19T13:17:02Z</time>
      </trkpt>
      <trkpt lat="49.64835" lon="5.01412">
        <ele>154.91</ele>
        <time>2020-06-19T13:17:16Z</time>
      </trkpt>
      <trkpt lat="49.6484" lon="5.01395">
        <ele>153.95</ele>
        <time>2020-06-19T13:17:29Z</time>
      </trkpt>
      <trkpt lat="49.64844" lon="5.01384">
        <ele>153.95</ele>
        <time>2020-06-19T13:17:37Z</time>
      </trkpt>
      <trkpt lat="49.64849" lon="5.01369">
        <ele>154.43</ele>
        <time>2020-06-19T13:17:47Z</time>
      </trkpt>
      <trkpt lat="49.64851" lon="5.01362">
        <ele>153.95</ele>
        <time>2020-06-19T13:17:53Z</time>
      </trkpt>
      <trkpt lat="49.64857" lon="5.01343">
        <ele>154.91</ele>
        <time>2020-06-19T13:18:05Z</time>
      </trkpt>
      <trkpt lat="49.64862" lon="5.01326">
        <ele>154.43</ele>
        <time>2020-06-19T13:18:18Z</time>
      </trkpt>
      <trkpt lat="49.64868" lon="5.01308">
        <ele>154.43</ele>
        <time>2020-06-19T13:18:31Z</time>
      </trkpt>
      <trkpt lat="49.64874" lon="5.01288">
        <ele>154.43</ele>
        <time>2020-06-19T13:18:45Z</time>
      </trkpt>
      <trkpt lat="49.64879" lon="5.0127">
        <ele>154.91</ele>
        <time>2020-06-19T13:18:57Z</time>
      </trkpt>
      <trkpt lat="49.64882" lon="5.01253">
        <ele>154.91</ele>
        <time>2020-06-19T13:19:09Z</time>
      </trkpt>
      <trkpt lat="49.64885" lon="5.01245">
        <ele>154.91</ele>
        <time>2020-06-19T13:19:15Z</time>
      </trkpt>
      <trkpt lat="49.64889" lon="5.01226">
        <ele>154.43</ele>
        <time>2020-06-19T13:19:28Z</time>
      </trkpt>
      <trkpt lat="49.6489" lon="5.01222">
        <ele>154.43</ele>
        <time>2020-06-19T13:19:32Z</time>
      </trkpt>
      <trkpt lat="49.64892" lon="5.01204">
        <ele>154.91</ele>
        <time>2020-06-19T13:19:44Z</time>
      </trkpt>
      <trkpt lat="49.64895" lon="5.01186">
        <ele>154.91</ele>
        <time>2020-06-19T13:19:56Z</time>
      </trkpt>
      <trkpt lat="49.64897" lon="5.01167">
        <ele>154.43</ele>
        <time>2020-06-19T13:20:10Z</time>
      </trkpt>
      <trkpt lat="49.649" lon="5.01151">
        <ele>154.91</ele>
        <time>2020-06-19T13:20:20Z</time>
      </trkpt>
      <trkpt lat="49.64901" lon="5.01133">
        <ele>154.91</ele>
        <time>2020-06-19T13:20:32Z</time>
      </trkpt>
      <trkpt lat="49.64901" lon="5.01131">
        <ele>154.91</ele>
        <time>2020-06-19T13:20:33Z</time>
      </trkpt>
      <trkpt lat="49.64903" lon="5.01119">
        <ele>154.43</ele>
        <time>2020-06-19T13:20:45Z</time>
      </trkpt>
      <trkpt lat="49.64905" lon="5.01103">
        <ele>153.47</ele>
        <time>2020-06-19T13:20:58Z</time>
      </trkpt>
      <trkpt lat="49.64905" lon="5.01098">
        <ele>153.47</ele>
        <time>2020-06-19T13:21:09Z</time>
      </trkpt>
      <trkpt lat="49.64905" lon="5.01078">
        <ele>153.95</ele>
        <time>2020-06-19T13:21:21Z</time>
      </trkpt>
      <trkpt lat="49.64905" lon="5.01059">
        <ele>154.43</ele>
        <time>2020-06-19T13:21:33Z</time>
      </trkpt>
      <trkpt lat="49.64905" lon="5.01041">
        <ele>154.91</ele>
        <time>2020-06-19T13:21:45Z</time>
      </trkpt>
      <trkpt lat="49.64903" lon="5.01024">
        <ele>155.39</ele>
        <time>2020-06-19T13:21:57Z</time>
      </trkpt>
      <trkpt lat="49.64904" lon="5.01021">
        <ele>155.39</ele>
        <time>2020-06-19T13:21:59Z</time>
      </trkpt>
      <trkpt lat="49.64904" lon="5.01001">
        <ele>156.83</ele>
        <time>2020-06-19T13:22:11Z</time>
      </trkpt>
      <trkpt lat="49.64903" lon="5.00982">
        <ele>157.31</ele>
        <time>2020-06-19T13:22:23Z</time>
      </trkpt>
      <trkpt lat="49.64903" lon="5.00975">
        <ele>157.31</ele>
        <time>2020-06-19T13:22:28Z</time>
      </trkpt>
      <trkpt lat="49.64903" lon="5.00962">
        <ele>157.79</ele>
        <time>2020-06-19T13:22:36Z</time>
      </trkpt>
      <trkpt lat="49.64902" lon="5.00941">
        <ele>159.24</ele>
        <time>2020-06-19T13:22:48Z</time>
      </trkpt>
      <trkpt lat="49.64901" lon="5.00925">
        <ele>158.75</ele>
        <time>2020-06-19T13:23:00Z</time>
      </trkpt>
      <trkpt lat="49.64898" lon="5.00904">
        <ele>157.79</ele>
        <time>2020-06-19T13:23:13Z</time>
      </trkpt>
      <trkpt lat="49.64898" lon="5.00884">
        <ele>158.27</ele>
        <time>2020-06-19T13:23:25Z</time>
      </trkpt>
      <trkpt lat="49.64898" lon="5.00864">
        <ele>158.75</ele>
        <time>2020-06-19T13:23:37Z</time>
      </trkpt>
      <trkpt lat="49.64898" lon="5.00848">
        <ele>158.75</ele>
        <time>2020-06-19T13:23:49Z</time>
      </trkpt>
      <trkpt lat="49.64899" lon="5.00831">
        <ele>159.72</ele>
        <time>2020-06-19T13:23:59Z</time>
      </trkpt>
      <trkpt lat="49.64899" lon="5.0081">
        <ele>159.24</ele>
        <time>2020-06-19T13:24:12Z</time>
      </trkpt>
      <trkpt lat="49.649" lon="5.00791">
        <ele>157.31</ele>
        <time>2020-06-19T13:24:25Z</time>
      </trkpt>
      <trkpt lat="49.64902" lon="5.00774">
        <ele>156.83</ele>
        <time>2020-06-19T13:24:36Z</time>
      </trkpt>
      <trkpt lat="49.64903" lon="5.00758">
        <ele>157.31</ele>
        <time>2020-06-19T13:24:47Z</time>
      </trkpt>
      <trkpt lat="49.64904" lon="5.00739">
        <ele>155.39</ele>
        <time>2020-06-19T13:25:00Z</time>
      </trkpt>
      <trkpt lat="49.64904" lon="5.0072">
        <ele>153.47</ele>
        <time>2020-06-19T13:25:11Z</time>
      </trkpt>
      <trkpt lat="49.64904" lon="5.00717">
        <ele>152.99</ele>
        <time>2020-06-19T13:25:14Z</time>
      </trkpt>
      <trkpt lat="49.64905" lon="5.00714">
        <ele>152.99</ele>
        <time>2020-06-19T13:25:16Z</time>
      </trkpt>
      <trkpt lat="49.64906" lon="5.00695">
        <ele>153.95</ele>
        <time>2020-06-19T13:25:28Z</time>
      </trkpt>
      <trkpt lat="49.64908" lon="5.00678">
        <ele>155.39</ele>
        <time>2020-06-19T13:25:38Z</time>
      </trkpt>
      <trkpt lat="49.64911" lon="5.00658">
        <ele>155.87</ele>
        <time>2020-06-19T13:25:50Z</time>
      </trkpt>
      <trkpt lat="49.64913" lon="5.00639">
        <ele>155.87</ele>
        <time>2020-06-19T13:26:03Z</time>
      </trkpt>
      <trkpt lat="49.64917" lon="5.00618">
        <ele>156.35</ele>
        <time>2020-06-19T13:26:15Z</time>
      </trkpt>
      <trkpt lat="49.6492" lon="5.006">
        <ele>156.83</ele>
        <time>2020-06-19T13:26:27Z</time>
      </trkpt>
      <trkpt lat="49.64924" lon="5.0058">
        <ele>156.83</ele>
        <time>2020-06-19T13:26:38Z</time>
      </trkpt>
      <trkpt lat="49.6493" lon="5.00555">
        <ele>158.75</ele>
        <time>2020-06-19T13:26:52Z</time>
      </trkpt>
      <trkpt lat="49.64934" lon="5.00538">
        <ele>159.24</ele>
        <time>2020-06-19T13:27:03Z</time>
      </trkpt>
      <trkpt lat="49.64937" lon="5.00527">
        <ele>158.27</ele>
        <time>2020-06-19T13:27:13Z</time>
      </trkpt>
      <trkpt lat="49.64941" lon="5.00518">
        <ele>158.75</ele>
        <time>2020-06-19T13:27:18Z</time>
      </trkpt>
      <trkpt lat="49.64947" lon="5.00493">
        <ele>158.75</ele>
        <time>2020-06-19T13:27:33Z</time>
      </trkpt>
      <trkpt lat="49.64953" lon="5.00475">
        <ele>159.24</ele>
        <time>2020-06-19T13:27:45Z</time>
      </trkpt>
      <trkpt lat="49.64959" lon="5.00456">
        <ele>157.79</ele>
        <time>2020-06-19T13:28:00Z</time>
      </trkpt>
      <trkpt lat="49.64965" lon="5.00437">
        <ele>157.31</ele>
        <time>2020-06-19T13:28:13Z</time>
      </trkpt>
      <trkpt lat="49.6497" lon="5.00419">
        <ele>156.35</ele>
        <time>2020-06-19T13:28:25Z</time>
      </trkpt>
      <trkpt lat="49.64978" lon="5.00395">
        <ele>158.27</ele>
        <time>2020-06-19T13:28:40Z</time>
      </trkpt>
      <trkpt lat="49.64986" lon="5.00375">
        <ele>160.2</ele>
        <time>2020-06-19T13:28:53Z</time>
      </trkpt>
      <trkpt lat="49.64993" lon="5.00358">
        <ele>161.64</ele>
        <time>2020-06-19T13:29:05Z</time>
      </trkpt>
      <trkpt lat="49.64995" lon="5.00352">
        <ele>162.12</ele>
        <time>2020-06-19T13:29:08Z</time>
      </trkpt>
      <trkpt lat="49.65005" lon="5.00331">
        <ele>162.12</ele>
        <time>2020-06-19T13:29:23Z</time>
      </trkpt>
      <trkpt lat="49.65014" lon="5.00309">
        <ele>163.08</ele>
        <time>2020-06-19T13:29:36Z</time>
      </trkpt>
      <trkpt lat="49.65029" lon="5.00279">
        <ele>164.52</ele>
        <time>2020-06-19T13:29:54Z</time>
      </trkpt>
      <trkpt lat="49.65041" lon="5.00256">
        <ele>163.56</ele>
        <time>2020-06-19T13:30:11Z</time>
      </trkpt>
      <trkpt lat="49.65048" lon="5.00239">
        <ele>161.64</ele>
        <time>2020-06-19T13:30:26Z</time>
      </trkpt>
      <trkpt lat="49.65059" lon="5.00216">
        <ele>160.2</ele>
        <time>2020-06-19T13:30:42Z</time>
      </trkpt>
      <trkpt lat="49.65067" lon="5.00197">
        <ele>160.2</ele>
        <time>2020-06-19T13:30:55Z</time>
      </trkpt>
      <trkpt lat="49.65069" lon="5.00194">
        <ele>159.72</ele>
        <time>2020-06-19T13:30:58Z</time>
      </trkpt>
      <trkpt lat="49.65072" lon="5.00187">
        <ele>159.72</ele>
        <time>2020-06-19T13:31:03Z</time>
      </trkpt>
      <trkpt lat="49.65083" lon="5.00166">
        <ele>159.24</ele>
        <time>2020-06-19T13:31:19Z</time>
      </trkpt>
      <trkpt lat="49.65093" lon="5.00145">
        <ele>157.79</ele>
        <time>2020-06-19T13:31:35Z</time>
      </trkpt>
      <trkpt lat="49.65103" lon="5.00124">
        <ele>157.31</ele>
        <time>2020-06-19T13:31:51Z</time>
      </trkpt>
      <trkpt lat="49.65113" lon="5.00105">
        <ele>157.31</ele>
        <time>2020-06-19T13:32:04Z</time>
      </trkpt>
      <trkpt lat="49.65124" lon="5.00083">
        <ele>156.83</ele>
        <time>2020-06-19T13:32:21Z</time>
      </trkpt>
      <trkpt lat="49.65135" lon="5.00061">
        <ele>157.31</ele>
        <time>2020-06-19T13:32:38Z</time>
      </trkpt>
      <trkpt lat="49.65144" lon="5.00043">
        <ele>155.39</ele>
        <time>2020-06-19T13:32:53Z</time>
      </trkpt>
      <trkpt lat="49.65153" lon="5.00022">
        <ele>155.39</ele>
        <time>2020-06-19T13:33:09Z</time>
      </trkpt>
      <trkpt lat="49.65153" lon="5.00021">
        <ele>155.39</ele>
        <time>2020-06-19T13:33:22Z</time>
      </trkpt>
      <trkpt lat="49.65153" lon="5.00019">
        <ele>154.91</ele>
        <time>2020-06-19T13:33:39Z</time>
      </trkpt>
      <trkpt lat="49.65155" lon="5.00014">
        <ele>154.43</ele>
        <time>2020-06-19T13:34:00Z</time>
      </trkpt>
      <trkpt lat="49.65161" lon="5.00001">
        <ele>154.91</ele>
        <time>2020-06-19T13:34:14Z</time>
      </trkpt>
      <trkpt lat="49.65164" lon="4.99992">
        <ele>155.39</ele>
        <time>2020-06-19T13:34:23Z</time>
      </trkpt>
      <trkpt lat="49.65171" lon="4.9998">
        <ele>156.83</ele>
        <time>2020-06-19T13:34:32Z</time>
      </trkpt>
      <trkpt lat="49.65175" lon="4.99974">
        <ele>156.35</ele>
        <time>2020-06-19T13:34:39Z</time>
      </trkpt>
      <trkpt lat="49.65177" lon="4.99964">
        <ele>156.35</ele>
        <time>2020-06-19T13:34:44Z</time>
      </trkpt>
      <trkpt lat="49.65183" lon="4.99937">
        <ele>156.35</ele>
        <time>2020-06-19T13:35:01Z</time>
      </trkpt>
      <trkpt lat="49.65187" lon="4.99929">
        <ele>156.83</ele>
        <time>2020-06-19T13:35:09Z</time>
      </trkpt>
      <trkpt lat="49.65195" lon="4.99914">
        <ele>157.79</ele>
        <time>2020-06-19T13:35:22Z</time>
      </trkpt>
      <trkpt lat="49.65197" lon="4.9991">
        <ele>159.24</ele>
        <time>2020-06-19T13:35:26Z</time>
      </trkpt>
      <trkpt lat="49.6521" lon="4.99896">
        <ele>161.16</ele>
        <time>2020-06-19T13:35:39Z</time>
      </trkpt>
      <trkpt lat="49.65223" lon="4.99885">
        <ele>161.16</ele>
        <time>2020-06-19T13:35:53Z</time>
      </trkpt>
      <trkpt lat="49.65232" lon="4.99871">
        <ele>159.24</ele>
        <time>2020-06-19T13:36:06Z</time>
      </trkpt>
      <trkpt lat="49.65241" lon="4.99855">
        <ele>156.83</ele>
        <time>2020-06-19T13:36:21Z</time>
      </trkpt>
      <trkpt lat="49.65245" lon="4.99845">
        <ele>156.83</ele>
        <time>2020-06-19T13:36:27Z</time>
      </trkpt>
      <trkpt lat="49.65248" lon="4.99842">
        <ele>156.35</ele>
        <time>2020-06-19T13:36:31Z</time>
      </trkpt>
      <trkpt lat="49.65255" lon="4.99832">
        <ele>156.83</ele>
        <time>2020-06-19T13:36:45Z</time>
      </trkpt>
      <trkpt lat="49.65266" lon="4.99812">
        <ele>158.75</ele>
        <time>2020-06-19T13:36:59Z</time>
      </trkpt>
      <trkpt lat="49.65276" lon="4.99791">
        <ele>161.16</ele>
        <time>2020-06-19T13:37:13Z</time>
      </trkpt>
      <trkpt lat="49.65287" lon="4.99768">
        <ele>163.08</ele>
        <time>2020-06-19T13:37:29Z</time>
      </trkpt>
      <trkpt lat="49.65297" lon="4.99746">
        <ele>164.52</ele>
        <time>2020-06-19T13:37:45Z</time>
      </trkpt>
      <trkpt lat="49.65306" lon="4.99724">
        <ele>170.29</ele>
        <time>2020-06-19T13:38:00Z</time>
      </trkpt>
      <trkpt lat="49.65313" lon="4.99707">
        <ele>178.94</ele>
        <time>2020-06-19T13:38:15Z</time>
      </trkpt>
      <trkpt lat="49.65315" lon="4.99702">
        <ele>180.87</ele>
        <time>2020-06-19T13:38:18Z</time>
      </trkpt>
      <trkpt lat="49.65326" lon="4.99683">
        <ele>190.48</ele>
        <time>2020-06-19T13:38:35Z</time>
      </trkpt>
      <trkpt lat="49.65327" lon="4.99682">
        <ele>191.44</ele>
        <time>2020-06-19T13:38:37Z</time>
      </trkpt>
      <trkpt lat="49.65337" lon="4.9966">
        <ele>195.28</ele>
        <time>2020-06-19T13:38:54Z</time>
      </trkpt>
      <trkpt lat="49.65347" lon="4.99644">
        <ele>195.77</ele>
        <time>2020-06-19T13:39:10Z</time>
      </trkpt>
      <trkpt lat="49.65354" lon="4.99629">
        <ele>196.25</ele>
        <time>2020-06-19T13:39:24Z</time>
      </trkpt>
      <trkpt lat="49.65356" lon="4.99625">
        <ele>196.25</ele>
        <time>2020-06-19T13:39:27Z</time>
      </trkpt>
      <trkpt lat="49.65367" lon="4.99605">
        <ele>200.09</ele>
        <time>2020-06-19T13:39:43Z</time>
      </trkpt>
      <trkpt lat="49.65379" lon="4.99589">
        <ele>198.17</ele>
        <time>2020-06-19T13:39:57Z</time>
      </trkpt>
      <trkpt lat="49.65388" lon="4.99576">
        <ele>193.36</ele>
        <time>2020-06-19T13:40:07Z</time>
      </trkpt>
      <trkpt lat="49.65397" lon="4.99557">
        <ele>182.31</ele>
        <time>2020-06-19T13:40:23Z</time>
      </trkpt>
      <trkpt lat="49.65404" lon="4.99541">
        <ele>177.5</ele>
        <time>2020-06-19T13:40:37Z</time>
      </trkpt>
      <trkpt lat="49.65415" lon="4.99519">
        <ele>173.66</ele>
        <time>2020-06-19T13:40:53Z</time>
      </trkpt>
      <trkpt lat="49.65425" lon="4.99497">
        <ele>167.41</ele>
        <time>2020-06-19T13:41:10Z</time>
      </trkpt>
      <trkpt lat="49.65431" lon="4.99481">
        <ele>165</ele>
        <time>2020-06-19T13:41:23Z</time>
      </trkpt>
      <trkpt lat="49.65437" lon="4.99466">
        <ele>164.52</ele>
        <time>2020-06-19T13:41:35Z</time>
      </trkpt>
      <trkpt lat="49.65438" lon="4.99464">
        <ele>163.56</ele>
        <time>2020-06-19T13:41:39Z</time>
      </trkpt>
      <trkpt lat="49.6545" lon="4.99444">
        <ele>162.6</ele>
        <time>2020-06-19T13:41:57Z</time>
      </trkpt>
      <trkpt lat="49.65458" lon="4.99427">
        <ele>158.75</ele>
        <time>2020-06-19T13:42:11Z</time>
      </trkpt>
      <trkpt lat="49.6547" lon="4.9941">
        <ele>157.31</ele>
        <time>2020-06-19T13:42:26Z</time>
      </trkpt>
      <trkpt lat="49.6548" lon="4.99393">
        <ele>156.35</ele>
        <time>2020-06-19T13:42:41Z</time>
      </trkpt>
      <trkpt lat="49.65492" lon="4.99374">
        <ele>157.31</ele>
        <time>2020-06-19T13:42:57Z</time>
      </trkpt>
      <trkpt lat="49.65501" lon="4.99359">
        <ele>156.35</ele>
        <time>2020-06-19T13:43:11Z</time>
      </trkpt>
      <trkpt lat="49.65504" lon="4.99355">
        <ele>156.35</ele>
        <time>2020-06-19T13:43:14Z</time>
      </trkpt>
      <trkpt lat="49.65519" lon="4.99333">
        <ele>156.83</ele>
        <time>2020-06-19T13:43:32Z</time>
      </trkpt>
      <trkpt lat="49.65527" lon="4.99315">
        <ele>156.35</ele>
        <time>2020-06-19T13:43:48Z</time>
      </trkpt>
      <trkpt lat="49.65538" lon="4.99296">
        <ele>154.91</ele>
        <time>2020-06-19T13:44:04Z</time>
      </trkpt>
      <trkpt lat="49.65547" lon="4.9928">
        <ele>153.47</ele>
        <time>2020-06-19T13:44:19Z</time>
      </trkpt>
      <trkpt lat="49.6556" lon="4.99259">
        <ele>153.95</ele>
        <time>2020-06-19T13:44:37Z</time>
      </trkpt>
      <trkpt lat="49.65563" lon="4.9925">
        <ele>153.47</ele>
        <time>2020-06-19T13:44:54Z</time>
      </trkpt>
      <trkpt lat="49.65564" lon="4.99248">
        <ele>153.47</ele>
        <time>2020-06-19T13:45:07Z</time>
      </trkpt>
      <trkpt lat="49.65564" lon="4.99248">
        <ele>153.47</ele>
        <time>2020-06-19T13:45:08Z</time>
      </trkpt>
      <trkpt lat="49.6556" lon="4.9924">
        <ele>153.95</ele>
        <time>2020-06-19T13:45:21Z</time>
      </trkpt>
      <trkpt lat="49.6555" lon="4.99226">
        <ele>153.47</ele>
        <time>2020-06-19T13:45:35Z</time>
      </trkpt>
      <trkpt lat="49.65535" lon="4.99213">
        <ele>151.06</ele>
        <time>2020-06-19T13:45:50Z</time>
      </trkpt>
      <trkpt lat="49.65519" lon="4.99203">
        <ele>153.47</ele>
        <time>2020-06-19T13:46:08Z</time>
      </trkpt>
      <trkpt lat="49.65514" lon="4.99202">
        <ele>155.39</ele>
        <time>2020-06-19T13:46:15Z</time>
      </trkpt>
      <trkpt lat="49.65498" lon="4.99194">
        <ele>156.83</ele>
        <time>2020-06-19T13:46:31Z</time>
      </trkpt>
      <trkpt lat="49.65497" lon="4.99194">
        <ele>157.31</ele>
        <time>2020-06-19T13:46:32Z</time>
      </trkpt>
      <trkpt lat="49.65487" lon="4.99213">
        <ele>156.83</ele>
        <time>2020-06-19T13:46:47Z</time>
      </trkpt>
      <trkpt lat="49.6548" lon="4.99233">
        <ele>157.31</ele>
        <time>2020-06-19T13:47:01Z</time>
      </trkpt>
      <trkpt lat="49.65472" lon="4.99259">
        <ele>157.79</ele>
        <time>2020-06-19T13:47:19Z</time>
      </trkpt>
      <trkpt lat="49.6547" lon="4.99262">
        <ele>157.79</ele>
        <time>2020-06-19T13:47:22Z</time>
      </trkpt>
      <trkpt lat="49.65464" lon="4.99273">
        <ele>156.35</ele>
        <time>2020-06-19T13:47:31Z</time>
      </trkpt>
      <trkpt lat="49.6546" lon="4.99278">
        <ele>155.87</ele>
        <time>2020-06-19T13:47:36Z</time>
      </trkpt>
      <trkpt lat="49.65449" lon="4.99274">
        <ele>156.83</ele>
        <time>2020-06-19T13:47:49Z</time>
      </trkpt>
      <trkpt lat="49.65435" lon="4.99257">
        <ele>157.31</ele>
        <time>2020-06-19T13:48:08Z</time>
      </trkpt>
      <trkpt lat="49.65426" lon="4.99242">
        <ele>159.24</ele>
        <time>2020-06-19T13:48:21Z</time>
      </trkpt>
      <trkpt lat="49.65415" lon="4.99224">
        <ele>156.83</ele>
        <time>2020-06-19T13:48:36Z</time>
      </trkpt>
      <trkpt lat="49.65402" lon="4.99206">
        <ele>156.35</ele>
        <time>2020-06-19T13:48:53Z</time>
      </trkpt>
      <trkpt lat="49.65392" lon="4.9919">
        <ele>159.24</ele>
        <time>2020-06-19T13:49:08Z</time>
      </trkpt>
      <trkpt lat="49.65377" lon="4.99193">
        <ele>160.68</ele>
        <time>2020-06-19T13:49:22Z</time>
      </trkpt>
      <trkpt lat="49.65376" lon="4.99194">
        <ele>160.2</ele>
        <time>2020-06-19T13:49:25Z</time>
      </trkpt>
      <trkpt lat="49.65371" lon="4.99186">
        <ele>158.75</ele>
        <time>2020-06-19T13:49:32Z</time>
      </trkpt>
      <trkpt lat="49.65375" lon="4.99169">
        <ele>159.24</ele>
        <time>2020-06-19T13:49:46Z</time>
      </trkpt>
      <trkpt lat="49.65374" lon="4.99168">
        <ele>159.72</ele>
        <time>2020-06-19T13:49:47Z</time>
      </trkpt>
      <trkpt lat="49.65371" lon="4.99158">
        <ele>160.68</ele>
        <time>2020-06-19T13:49:53Z</time>
      </trkpt>
      <trkpt lat="49.65357" lon="4.99137">
        <ele>159.72</ele>
        <time>2020-06-19T13:50:10Z</time>
      </trkpt>
      <trkpt lat="49.65346" lon="4.9912">
        <ele>161.64</ele>
        <time>2020-06-19T13:50:25Z</time>
      </trkpt>
      <trkpt lat="49.65339" lon="4.99095">
        <ele>162.12</ele>
        <time>2020-06-19T13:50:41Z</time>
      </trkpt>
      <trkpt lat="49.65334" lon="4.99085">
        <ele>163.08</ele>
        <time>2020-06-19T13:50:51Z</time>
      </trkpt>
      <trkpt lat="49.65331" lon="4.99067">
        <ele>162.12</ele>
        <time>2020-06-19T13:51:01Z</time>
      </trkpt>
      <trkpt lat="49.65324" lon="4.99048">
        <ele>161.64</ele>
        <time>2020-06-19T13:51:16Z</time>
      </trkpt>
      <trkpt lat="49.6531" lon="4.99026">
        <ele>165</ele>
        <time>2020-06-19T13:51:32Z</time>
      </trkpt>
      <trkpt lat="49.65298" lon="4.99018">
        <ele>165</ele>
        <time>2020-06-19T13:51:47Z</time>
      </trkpt>
      <trkpt lat="49.65296" lon="4.99014">
        <ele>165</ele>
        <time>2020-06-19T13:51:50Z</time>
      </trkpt>
      <trkpt lat="49.65278" lon="4.98997">
        <ele>165.48</ele>
        <time>2020-06-19T13:52:07Z</time>
      </trkpt>
      <trkpt lat="49.65263" lon="4.98987">
        <ele>164.52</ele>
        <time>2020-06-19T13:52:24Z</time>
      </trkpt>
      <trkpt lat="49.65245" lon="4.98969">
        <ele>167.41</ele>
        <time>2020-06-19T13:52:40Z</time>
      </trkpt>
      <trkpt lat="49.65235" lon="4.98962">
        <ele>168.37</ele>
        <time>2020-06-19T13:52:53Z</time>
      </trkpt>
      <trkpt lat="49.6522" lon="4.98947">
        <ele>168.85</ele>
        <time>2020-06-19T13:53:09Z</time>
      </trkpt>
      <trkpt lat="49.65209" lon="4.98936">
        <ele>167.89</ele>
        <time>2020-06-19T13:53:22Z</time>
      </trkpt>
      <trkpt lat="49.65207" lon="4.98934">
        <ele>167.89</ele>
        <time>2020-06-19T13:53:24Z</time>
      </trkpt>
      <trkpt lat="49.65188" lon="4.9892">
        <ele>162.12</ele>
        <time>2020-06-19T13:53:42Z</time>
      </trkpt>
      <trkpt lat="49.65175" lon="4.98907">
        <ele>162.12</ele>
        <time>2020-06-19T13:53:57Z</time>
      </trkpt>
      <trkpt lat="49.6516" lon="4.98895">
        <ele>162.12</ele>
        <time>2020-06-19T13:54:12Z</time>
      </trkpt>
      <trkpt lat="49.65147" lon="4.98881">
        <ele>161.16</ele>
        <time>2020-06-19T13:54:28Z</time>
      </trkpt>
      <trkpt lat="49.65133" lon="4.98868">
        <ele>160.68</ele>
        <time>2020-06-19T13:54:44Z</time>
      </trkpt>
      <trkpt lat="49.6512" lon="4.98855">
        <ele>160.2</ele>
        <time>2020-06-19T13:55:01Z</time>
      </trkpt>
      <trkpt lat="49.65107" lon="4.98843">
        <ele>161.16</ele>
        <time>2020-06-19T13:55:16Z</time>
      </trkpt>
      <trkpt lat="49.65092" lon="4.9883">
        <ele>161.16</ele>
        <time>2020-06-19T13:55:31Z</time>
      </trkpt>
      <trkpt lat="49.6508" lon="4.98816">
        <ele>161.64</ele>
        <time>2020-06-19T13:55:46Z</time>
      </trkpt>
      <trkpt lat="49.65067" lon="4.98803">
        <ele>162.6</ele>
        <time>2020-06-19T13:56:01Z</time>
      </trkpt>
      <trkpt lat="49.65052" lon="4.98789">
        <ele>163.56</ele>
        <time>2020-06-19T13:56:17Z</time>
      </trkpt>
      <trkpt lat="49.6504" lon="4.98777">
        <ele>163.56</ele>
        <time>2020-06-19T13:56:31Z</time>
      </trkpt>
      <trkpt lat="49.65026" lon="4.98763">
        <ele>163.08</ele>
        <time>2020-06-19T13:56:47Z</time>
      </trkpt>
      <trkpt lat="49.65016" lon="4.98754">
        <ele>163.08</ele>
        <time>2020-06-19T13:56:59Z</time>
      </trkpt>
      <trkpt lat="49.65002" lon="4.98742">
        <ele>161.16</ele>
        <time>2020-06-19T13:57:13Z</time>
      </trkpt>
      <trkpt lat="49.64987" lon="4.98729">
        <ele>161.64</ele>
        <time>2020-06-19T13:57:30Z</time>
      </trkpt>
      <trkpt lat="49.64972" lon="4.98714">
        <ele>162.12</ele>
        <time>2020-06-19T13:57:47Z</time>
      </trkpt>
      <trkpt lat="49.6496" lon="4.98714">
        <ele>161.16</ele>
        <time>2020-06-19T13:58:02Z</time>
      </trkpt>
      <trkpt lat="49.64957" lon="4.98719">
        <ele>160.2</ele>
        <time>2020-06-19T13:58:11Z</time>
      </trkpt>
      <trkpt lat="49.64956" lon="4.98719">
        <ele>160.2</ele>
        <time>2020-06-19T13:58:31Z</time>
      </trkpt>
      <trkpt lat="49.64957" lon="4.98719">
        <ele>160.68</ele>
        <time>2020-06-19T13:59:07Z</time>
      </trkpt>
      <trkpt lat="49.64957" lon="4.9872">
        <ele>160.2</ele>
        <time>2020-06-19T13:59:24Z</time>
      </trkpt>
      <trkpt lat="49.64957" lon="4.9872">
        <ele>160.2</ele>
        <time>2020-06-19T13:59:48Z</time>
      </trkpt>
      <trkpt lat="49.64958" lon="4.9872">
        <ele>160.2</ele>
        <time>2020-06-19T14:00:21Z</time>
      </trkpt>
      <trkpt lat="49.64958" lon="4.98721">
        <ele>160.2</ele>
        <time>2020-06-19T14:00:54Z</time>
      </trkpt>
      <trkpt lat="49.64959" lon="4.98721">
        <ele>160.2</ele>
        <time>2020-06-19T14:01:22Z</time>
      </trkpt>
      <trkpt lat="49.64959" lon="4.98722">
        <ele>160.2</ele>
        <time>2020-06-19T14:01:57Z</time>
      </trkpt>
      <trkpt lat="49.64958" lon="4.98723">
        <ele>160.2</ele>
        <time>2020-06-19T14:02:28Z</time>
      </trkpt>
      <trkpt lat="49.64958" lon="4.98723">
        <ele>160.2</ele>
        <time>2020-06-19T14:02:58Z</time>
      </trkpt>
      <trkpt lat="49.64958" lon="4.98723">
        <ele>160.2</ele>
        <time>2020-06-19T14:03:28Z</time>
      </trkpt>
      <trkpt lat="49.64958" lon="4.98722">
        <ele>160.2</ele>
        <time>2020-06-19T14:03:58Z</time>
      </trkpt>
      <trkpt lat="49.64958" lon="4.98723">
        <ele>159.72</ele>
        <time>2020-06-19T14:04:31Z</time>
      </trkpt>
      <trkpt lat="49.64959" lon="4.98723">
        <ele>159.72</ele>
        <time>2020-06-19T14:04:59Z</time>
      </trkpt>
      <trkpt lat="49.64959" lon="4.98724">
        <ele>159.72</ele>
        <time>2020-06-19T14:05:23Z</time>
      </trkpt>
      <trkpt lat="49.64958" lon="4.98724">
        <ele>159.72</ele>
        <time>2020-06-19T14:05:56Z</time>
      </trkpt>
      <trkpt lat="49.64957" lon="4.9872">
        <ele>159.24</ele>
        <time>2020-06-19T14:06:20Z</time>
      </trkpt>
      <trkpt lat="49.64957" lon="4.9872">
        <ele>158.75</ele>
        <time>2020-06-19T14:06:44Z</time>
      </trkpt>
      <trkpt lat="49.64957" lon="4.98719">
        <ele>158.75</ele>
        <time>2020-06-19T14:07:04Z</time>
      </trkpt>
      <trkpt lat="49.64957" lon="4.98718">
        <ele>158.75</ele>
        <time>2020-06-19T14:07:24Z</time>
      </trkpt>
      <trkpt lat="49.64954" lon="4.98711">
        <ele>159.24</ele>
        <time>2020-06-19T14:07:36Z</time>
      </trkpt>
      <trkpt lat="49.64952" lon="4.98704">
        <ele>159.72</ele>
        <time>2020-06-19T14:07:49Z</time>
      </trkpt>
      <trkpt lat="49.64959" lon="4.98708">
        <ele>160.68</ele>
        <time>2020-06-19T14:08:01Z</time>
      </trkpt>
      <trkpt lat="49.64971" lon="4.98718">
        <ele>161.64</ele>
        <time>2020-06-19T14:08:17Z</time>
      </trkpt>
      <trkpt lat="49.64977" lon="4.98721">
        <ele>161.64</ele>
        <time>2020-06-19T14:08:26Z</time>
      </trkpt>
      <trkpt lat="49.64984" lon="4.98737">
        <ele>161.64</ele>
        <time>2020-06-19T14:08:39Z</time>
      </trkpt>
      <trkpt lat="49.64986" lon="4.9874">
        <ele>161.16</ele>
        <time>2020-06-19T14:08:51Z</time>
      </trkpt>
      <trkpt lat="49.64987" lon="4.98741">
        <ele>160.2</ele>
        <time>2020-06-19T14:09:11Z</time>
      </trkpt>
      <trkpt lat="49.64987" lon="4.98741">
        <ele>160.2</ele>
        <time>2020-06-19T14:09:12Z</time>
      </trkpt>
      <trkpt lat="49.64979" lon="4.98729">
        <ele>159.72</ele>
        <time>2020-06-19T14:09:24Z</time>
      </trkpt>
      <trkpt lat="49.64971" lon="4.9872">
        <ele>160.2</ele>
        <time>2020-06-19T14:09:38Z</time>
      </trkpt>
      <trkpt lat="49.64967" lon="4.98714">
        <ele>160.68</ele>
        <time>2020-06-19T14:09:44Z</time>
      </trkpt>
      <trkpt lat="49.64955" lon="4.98699">
        <ele>161.16</ele>
        <time>2020-06-19T14:10:00Z</time>
      </trkpt>
      <trkpt lat="49.64951" lon="4.987">
        <ele>161.16</ele>
        <time>2020-06-19T14:10:11Z</time>
      </trkpt>
      <trkpt lat="49.64951" lon="4.98701">
        <ele>161.16</ele>
        <time>2020-06-19T14:10:37Z</time>
      </trkpt>
      <trkpt lat="49.64951" lon="4.98701">
        <ele>158.75</ele>
        <time>2020-06-19T14:11:12Z</time>
      </trkpt>
      <trkpt lat="49.64951" lon="4.98702">
        <ele>158.27</ele>
        <time>2020-06-19T14:11:39Z</time>
      </trkpt>
      <trkpt lat="49.64951" lon="4.98702">
        <ele>158.75</ele>
        <time>2020-06-19T14:11:56Z</time>
      </trkpt>
      <trkpt lat="49.6495" lon="4.987">
        <ele>158.75</ele>
        <time>2020-06-19T14:12:18Z</time>
      </trkpt>
      <trkpt lat="49.64936" lon="4.98686">
        <ele>159.24</ele>
        <time>2020-06-19T14:12:33Z</time>
      </trkpt>
      <trkpt lat="49.64928" lon="4.98679">
        <ele>158.75</ele>
        <time>2020-06-19T14:12:46Z</time>
      </trkpt>
      <trkpt lat="49.64919" lon="4.98676">
        <ele>159.24</ele>
        <time>2020-06-19T14:12:55Z</time>
      </trkpt>
      <trkpt lat="49.64907" lon="4.98671">
        <ele>158.75</ele>
        <time>2020-06-19T14:13:07Z</time>
      </trkpt>
      <trkpt lat="49.64896" lon="4.98663">
        <ele>159.24</ele>
        <time>2020-06-19T14:13:23Z</time>
      </trkpt>
      <trkpt lat="49.64895" lon="4.98663">
        <ele>158.75</ele>
        <time>2020-06-19T14:13:27Z</time>
      </trkpt>
      <trkpt lat="49.64879" lon="4.98651">
        <ele>161.16</ele>
        <time>2020-06-19T14:13:43Z</time>
      </trkpt>
      <trkpt lat="49.64866" lon="4.98641">
        <ele>161.64</ele>
        <time>2020-06-19T14:13:58Z</time>
      </trkpt>
      <trkpt lat="49.64852" lon="4.98632">
        <ele>161.64</ele>
        <time>2020-06-19T14:14:13Z</time>
      </trkpt>
      <trkpt lat="49.6484" lon="4.98625">
        <ele>161.64</ele>
        <time>2020-06-19T14:14:26Z</time>
      </trkpt>
      <trkpt lat="49.64825" lon="4.98614">
        <ele>164.04</ele>
        <time>2020-06-19T14:14:43Z</time>
      </trkpt>
      <trkpt lat="49.64814" lon="4.98608">
        <ele>164.52</ele>
        <time>2020-06-19T14:14:59Z</time>
      </trkpt>
      <trkpt lat="49.648" lon="4.986">
        <ele>165.96</ele>
        <time>2020-06-19T14:15:14Z</time>
      </trkpt>
      <trkpt lat="49.64785" lon="4.98591">
        <ele>167.41</ele>
        <time>2020-06-19T14:15:31Z</time>
      </trkpt>
      <trkpt lat="49.64773" lon="4.98583">
        <ele>167.41</ele>
        <time>2020-06-19T14:15:45Z</time>
      </trkpt>
      <trkpt lat="49.6476" lon="4.98577">
        <ele>168.85</ele>
        <time>2020-06-19T14:15:59Z</time>
      </trkpt>
      <trkpt lat="49.6475" lon="4.98572">
        <ele>170.29</ele>
        <time>2020-06-19T14:16:12Z</time>
      </trkpt>
      <trkpt lat="49.64742" lon="4.98566">
        <ele>170.77</ele>
        <time>2020-06-19T14:16:20Z</time>
      </trkpt>
      <trkpt lat="49.64733" lon="4.98562">
        <ele>172.21</ele>
        <time>2020-06-19T14:16:29Z</time>
      </trkpt>
      <trkpt lat="49.64715" lon="4.98553">
        <ele>169.81</ele>
        <time>2020-06-19T14:16:46Z</time>
      </trkpt>
      <trkpt lat="49.647" lon="4.98544">
        <ele>169.81</ele>
        <time>2020-06-19T14:17:02Z</time>
      </trkpt>
      <trkpt lat="49.64682" lon="4.98532">
        <ele>170.77</ele>
        <time>2020-06-19T14:17:20Z</time>
      </trkpt>
      <trkpt lat="49.64676" lon="4.9853">
        <ele>170.29</ele>
        <time>2020-06-19T14:17:27Z</time>
      </trkpt>
      <trkpt lat="49.6466" lon="4.9852">
        <ele>170.29</ele>
        <time>2020-06-19T14:17:43Z</time>
      </trkpt>
      <trkpt lat="49.64646" lon="4.98512">
        <ele>169.81</ele>
        <time>2020-06-19T14:17:57Z</time>
      </trkpt>
      <trkpt lat="49.64634" lon="4.98506">
        <ele>168.85</ele>
        <time>2020-06-19T14:18:10Z</time>
      </trkpt>
      <trkpt lat="49.64618" lon="4.98498">
        <ele>166.45</ele>
        <time>2020-06-19T14:18:25Z</time>
      </trkpt>
      <trkpt lat="49.64604" lon="4.98489">
        <ele>165.96</ele>
        <time>2020-06-19T14:18:41Z</time>
      </trkpt>
      <trkpt lat="49.6459" lon="4.98484">
        <ele>166.45</ele>
        <time>2020-06-19T14:18:57Z</time>
      </trkpt>
      <trkpt lat="49.64589" lon="4.98484">
        <ele>166.45</ele>
        <time>2020-06-19T14:18:58Z</time>
      </trkpt>
      <trkpt lat="49.64583" lon="4.98483">
        <ele>165.96</ele>
        <time>2020-06-19T14:19:05Z</time>
      </trkpt>
      <trkpt lat="49.64579" lon="4.98481">
        <ele>165.96</ele>
        <time>2020-06-19T14:19:09Z</time>
      </trkpt>
      <trkpt lat="49.64561" lon="4.98473">
        <ele>162.12</ele>
        <time>2020-06-19T14:19:26Z</time>
      </trkpt>
      <trkpt lat="49.64548" lon="4.98463">
        <ele>162.6</ele>
        <time>2020-06-19T14:19:42Z</time>
      </trkpt>
      <trkpt lat="49.64533" lon="4.98455">
        <ele>160.2</ele>
        <time>2020-06-19T14:19:57Z</time>
      </trkpt>
      <trkpt lat="49.64518" lon="4.98445">
        <ele>159.72</ele>
        <time>2020-06-19T14:20:13Z</time>
      </trkpt>
      <trkpt lat="49.64503" lon="4.98437">
        <ele>158.75</ele>
        <time>2020-06-19T14:20:28Z</time>
      </trkpt>
      <trkpt lat="49.64491" lon="4.9843">
        <ele>159.24</ele>
        <time>2020-06-19T14:20:43Z</time>
      </trkpt>
      <trkpt lat="49.6448" lon="4.98421">
        <ele>160.2</ele>
        <time>2020-06-19T14:20:58Z</time>
      </trkpt>
      <trkpt lat="49.6448" lon="4.9842">
        <ele>160.2</ele>
        <time>2020-06-19T14:21:00Z</time>
      </trkpt>
      <trkpt lat="49.64465" lon="4.98412">
        <ele>159.72</ele>
        <time>2020-06-19T14:21:15Z</time>
      </trkpt>
      <trkpt lat="49.64455" lon="4.98403">
        <ele>160.2</ele>
        <time>2020-06-19T14:21:28Z</time>
      </trkpt>
      <trkpt lat="49.64441" lon="4.98394">
        <ele>159.72</ele>
        <time>2020-06-19T14:21:42Z</time>
      </trkpt>
      <trkpt lat="49.64422" lon="4.98386">
        <ele>160.68</ele>
        <time>2020-06-19T14:21:57Z</time>
      </trkpt>
      <trkpt lat="49.64408" lon="4.98374">
        <ele>163.08</ele>
        <time>2020-06-19T14:22:14Z</time>
      </trkpt>
      <trkpt lat="49.64393" lon="4.98366">
        <ele>164.52</ele>
        <time>2020-06-19T14:22:28Z</time>
      </trkpt>
      <trkpt lat="49.64377" lon="4.98357">
        <ele>162.12</ele>
        <time>2020-06-19T14:22:42Z</time>
      </trkpt>
      <trkpt lat="49.64363" lon="4.98342">
        <ele>162.12</ele>
        <time>2020-06-19T14:22:58Z</time>
      </trkpt>
      <trkpt lat="49.64348" lon="4.98327">
        <ele>161.64</ele>
        <time>2020-06-19T14:23:14Z</time>
      </trkpt>
      <trkpt lat="49.64338" lon="4.98319">
        <ele>161.64</ele>
        <time>2020-06-19T14:23:24Z</time>
      </trkpt>
      <trkpt lat="49.64324" lon="4.98307">
        <ele>158.27</ele>
        <time>2020-06-19T14:23:41Z</time>
      </trkpt>
      <trkpt lat="49.64314" lon="4.983">
        <ele>156.35</ele>
        <time>2020-06-19T14:23:51Z</time>
      </trkpt>
      <trkpt lat="49.64301" lon="4.9829">
        <ele>160.2</ele>
        <time>2020-06-19T14:24:07Z</time>
      </trkpt>
      <trkpt lat="49.64294" lon="4.98286">
        <ele>160.68</ele>
        <time>2020-06-19T14:24:13Z</time>
      </trkpt>
      <trkpt lat="49.64284" lon="4.98277">
        <ele>162.6</ele>
        <time>2020-06-19T14:24:25Z</time>
      </trkpt>
      <trkpt lat="49.64282" lon="4.98276">
        <ele>163.56</ele>
        <time>2020-06-19T14:24:27Z</time>
      </trkpt>
      <trkpt lat="49.64269" lon="4.9826">
        <ele>164.04</ele>
        <time>2020-06-19T14:24:44Z</time>
      </trkpt>
      <trkpt lat="49.64255" lon="4.98246">
        <ele>163.56</ele>
        <time>2020-06-19T14:24:59Z</time>
      </trkpt>
      <trkpt lat="49.64239" lon="4.9823">
        <ele>163.08</ele>
        <time>2020-06-19T14:25:14Z</time>
      </trkpt>
      <trkpt lat="49.64224" lon="4.98216">
        <ele>163.56</ele>
        <time>2020-06-19T14:25:28Z</time>
      </trkpt>
      <trkpt lat="49.64207" lon="4.98201">
        <ele>164.04</ele>
        <time>2020-06-19T14:25:45Z</time>
      </trkpt>
      <trkpt lat="49.64196" lon="4.98189">
        <ele>162.6</ele>
        <time>2020-06-19T14:25:59Z</time>
      </trkpt>
      <trkpt lat="49.64181" lon="4.9818">
        <ele>162.12</ele>
        <time>2020-06-19T14:26:15Z</time>
      </trkpt>
      <trkpt lat="49.64177" lon="4.98178">
        <ele>163.08</ele>
        <time>2020-06-19T14:26:19Z</time>
      </trkpt>
      <trkpt lat="49.64166" lon="4.98168">
        <ele>165.96</ele>
        <time>2020-06-19T14:26:34Z</time>
      </trkpt>
      <trkpt lat="49.64155" lon="4.98156">
        <ele>168.85</ele>
        <time>2020-06-19T14:26:50Z</time>
      </trkpt>
      <trkpt lat="49.64143" lon="4.98141">
        <ele>172.21</ele>
        <time>2020-06-19T14:27:06Z</time>
      </trkpt>
      <trkpt lat="49.64135" lon="4.98134">
        <ele>172.21</ele>
        <time>2020-06-19T14:27:16Z</time>
      </trkpt>
      <trkpt lat="49.64119" lon="4.98115">
        <ele>169.81</ele>
        <time>2020-06-19T14:27:32Z</time>
      </trkpt>
      <trkpt lat="49.64107" lon="4.98104">
        <ele>170.29</ele>
        <time>2020-06-19T14:27:46Z</time>
      </trkpt>
      <trkpt lat="49.64096" lon="4.9809">
        <ele>170.29</ele>
        <time>2020-06-19T14:28:00Z</time>
      </trkpt>
      <trkpt lat="49.64089" lon="4.98086">
        <ele>170.77</ele>
        <time>2020-06-19T14:28:04Z</time>
      </trkpt>
      <trkpt lat="49.64067" lon="4.9807">
        <ele>167.41</ele>
        <time>2020-06-19T14:28:22Z</time>
      </trkpt>
      <trkpt lat="49.6406" lon="4.98061">
        <ele>169.81</ele>
        <time>2020-06-19T14:28:38Z</time>
      </trkpt>
      <trkpt lat="49.64047" lon="4.98046">
        <ele>175.58</ele>
        <time>2020-06-19T14:28:56Z</time>
      </trkpt>
      <trkpt lat="49.64036" lon="4.98035">
        <ele>176.54</ele>
        <time>2020-06-19T14:29:10Z</time>
      </trkpt>
      <trkpt lat="49.64034" lon="4.98032">
        <ele>176.06</ele>
        <time>2020-06-19T14:29:12Z</time>
      </trkpt>
      <trkpt lat="49.64017" lon="4.98016">
        <ele>175.1</ele>
        <time>2020-06-19T14:29:28Z</time>
      </trkpt>
      <trkpt lat="49.63996" lon="4.98002">
        <ele>171.25</ele>
        <time>2020-06-19T14:29:45Z</time>
      </trkpt>
      <trkpt lat="49.63975" lon="4.97981">
        <ele>168.85</ele>
        <time>2020-06-19T14:30:04Z</time>
      </trkpt>
      <trkpt lat="49.63964" lon="4.97968">
        <ele>168.85</ele>
        <time>2020-06-19T14:30:19Z</time>
      </trkpt>
      <trkpt lat="49.63954" lon="4.97961">
        <ele>168.37</ele>
        <time>2020-06-19T14:30:29Z</time>
      </trkpt>
      <trkpt lat="49.63939" lon="4.97947">
        <ele>166.93</ele>
        <time>2020-06-19T14:30:46Z</time>
      </trkpt>
      <trkpt lat="49.63923" lon="4.97936">
        <ele>166.45</ele>
        <time>2020-06-19T14:31:01Z</time>
      </trkpt>
      <trkpt lat="49.63909" lon="4.97922">
        <ele>164.04</ele>
        <time>2020-06-19T14:31:20Z</time>
      </trkpt>
      <trkpt lat="49.63895" lon="4.97909">
        <ele>165.48</ele>
        <time>2020-06-19T14:31:36Z</time>
      </trkpt>
      <trkpt lat="49.63889" lon="4.97904">
        <ele>167.41</ele>
        <time>2020-06-19T14:31:50Z</time>
      </trkpt>
      <trkpt lat="49.63878" lon="4.97892">
        <ele>168.85</ele>
        <time>2020-06-19T14:32:04Z</time>
      </trkpt>
      <trkpt lat="49.63868" lon="4.97882">
        <ele>170.29</ele>
        <time>2020-06-19T14:32:18Z</time>
      </trkpt>
      <trkpt lat="49.63856" lon="4.97871">
        <ele>172.21</ele>
        <time>2020-06-19T14:32:33Z</time>
      </trkpt>
      <trkpt lat="49.63844" lon="4.97857">
        <ele>171.25</ele>
        <time>2020-06-19T14:32:47Z</time>
      </trkpt>
      <trkpt lat="49.6383" lon="4.97847">
        <ele>171.25</ele>
        <time>2020-06-19T14:33:03Z</time>
      </trkpt>
      <trkpt lat="49.63818" lon="4.97837">
        <ele>170.29</ele>
        <time>2020-06-19T14:33:18Z</time>
      </trkpt>
      <trkpt lat="49.63804" lon="4.97823">
        <ele>170.29</ele>
        <time>2020-06-19T14:33:33Z</time>
      </trkpt>
      <trkpt lat="49.63792" lon="4.97812">
        <ele>167.89</ele>
        <time>2020-06-19T14:33:47Z</time>
      </trkpt>
      <trkpt lat="49.6378" lon="4.97801">
        <ele>166.45</ele>
        <time>2020-06-19T14:34:00Z</time>
      </trkpt>
      <trkpt lat="49.63767" lon="4.97786">
        <ele>167.41</ele>
        <time>2020-06-19T14:34:16Z</time>
      </trkpt>
      <trkpt lat="49.63756" lon="4.97777">
        <ele>166.93</ele>
        <time>2020-06-19T14:34:29Z</time>
      </trkpt>
      <trkpt lat="49.63742" lon="4.97771">
        <ele>165.96</ele>
        <time>2020-06-19T14:34:43Z</time>
      </trkpt>
      <trkpt lat="49.63741" lon="4.9777">
        <ele>165.96</ele>
        <time>2020-06-19T14:34:44Z</time>
      </trkpt>
      <trkpt lat="49.63726" lon="4.97758">
        <ele>164.52</ele>
        <time>2020-06-19T14:35:01Z</time>
      </trkpt>
      <trkpt lat="49.63713" lon="4.97748">
        <ele>165</ele>
        <time>2020-06-19T14:35:16Z</time>
      </trkpt>
      <trkpt lat="49.63698" lon="4.97735">
        <ele>166.45</ele>
        <time>2020-06-19T14:35:32Z</time>
      </trkpt>
      <trkpt lat="49.63685" lon="4.97725">
        <ele>168.37</ele>
        <time>2020-06-19T14:35:47Z</time>
      </trkpt>
      <trkpt lat="49.63674" lon="4.97717">
        <ele>168.37</ele>
        <time>2020-06-19T14:36:02Z</time>
      </trkpt>
      <trkpt lat="49.6366" lon="4.97707">
        <ele>168.37</ele>
        <time>2020-06-19T14:36:17Z</time>
      </trkpt>
      <trkpt lat="49.63647" lon="4.97696">
        <ele>168.37</ele>
        <time>2020-06-19T14:36:32Z</time>
      </trkpt>
      <trkpt lat="49.63635" lon="4.97684">
        <ele>169.33</ele>
        <time>2020-06-19T14:36:47Z</time>
      </trkpt>
      <trkpt lat="49.63624" lon="4.97674">
        <ele>169.81</ele>
        <time>2020-06-19T14:37:01Z</time>
      </trkpt>
      <trkpt lat="49.63613" lon="4.97664">
        <ele>169.81</ele>
        <time>2020-06-19T14:37:15Z</time>
      </trkpt>
      <trkpt lat="49.63611" lon="4.97663">
        <ele>169.81</ele>
        <time>2020-06-19T14:37:30Z</time>
      </trkpt>
      <trkpt lat="49.63608" lon="4.97663">
        <ele>169.33</ele>
        <time>2020-06-19T14:37:35Z</time>
      </trkpt>
      <trkpt lat="49.63601" lon="4.97666">
        <ele>167.89</ele>
        <time>2020-06-19T14:37:42Z</time>
      </trkpt>
      <trkpt lat="49.63592" lon="4.97674">
        <ele>164.52</ele>
        <time>2020-06-19T14:37:57Z</time>
      </trkpt>
      <trkpt lat="49.63583" lon="4.97687">
        <ele>164.04</ele>
        <time>2020-06-19T14:38:11Z</time>
      </trkpt>
      <trkpt lat="49.6357" lon="4.97705">
        <ele>165</ele>
        <time>2020-06-19T14:38:27Z</time>
      </trkpt>
      <trkpt lat="49.63561" lon="4.97715">
        <ele>167.89</ele>
        <time>2020-06-19T14:38:39Z</time>
      </trkpt>
      <trkpt lat="49.63549" lon="4.9773">
        <ele>168.37</ele>
        <time>2020-06-19T14:38:54Z</time>
      </trkpt>
      <trkpt lat="49.6354" lon="4.97744">
        <ele>171.73</ele>
        <time>2020-06-19T14:39:08Z</time>
      </trkpt>
      <trkpt lat="49.63532" lon="4.97764">
        <ele>174.62</ele>
        <time>2020-06-19T14:39:24Z</time>
      </trkpt>
      <trkpt lat="49.63524" lon="4.97777">
        <ele>174.62</ele>
        <time>2020-06-19T14:39:39Z</time>
      </trkpt>
      <trkpt lat="49.63513" lon="4.97794">
        <ele>176.54</ele>
        <time>2020-06-19T14:39:57Z</time>
      </trkpt>
      <trkpt lat="49.63505" lon="4.97809">
        <ele>178.46</ele>
        <time>2020-06-19T14:40:11Z</time>
      </trkpt>
      <trkpt lat="49.63496" lon="4.97822">
        <ele>180.87</ele>
        <time>2020-06-19T14:40:26Z</time>
      </trkpt>
      <trkpt lat="49.63478" lon="4.9784">
        <ele>178.94</ele>
        <time>2020-06-19T14:40:42Z</time>
      </trkpt>
      <trkpt lat="49.63469" lon="4.97854">
        <ele>181.83</ele>
        <time>2020-06-19T14:40:56Z</time>
      </trkpt>
      <trkpt lat="49.63463" lon="4.9787">
        <ele>188.08</ele>
        <time>2020-06-19T14:41:09Z</time>
      </trkpt>
      <trkpt lat="49.63455" lon="4.97883">
        <ele>191.92</ele>
        <time>2020-06-19T14:41:23Z</time>
      </trkpt>
      <trkpt lat="49.63447" lon="4.97898">
        <ele>189.04</ele>
        <time>2020-06-19T14:41:36Z</time>
      </trkpt>
      <trkpt lat="49.63433" lon="4.97905">
        <ele>184.23</ele>
        <time>2020-06-19T14:41:50Z</time>
      </trkpt>
      <trkpt lat="49.63425" lon="4.97908">
        <ele>185.19</ele>
        <time>2020-06-19T14:42:01Z</time>
      </trkpt>
      <trkpt lat="49.63414" lon="4.97919">
        <ele>185.19</ele>
        <time>2020-06-19T14:42:16Z</time>
      </trkpt>
      <trkpt lat="49.63402" lon="4.97929">
        <ele>185.19</ele>
        <time>2020-06-19T14:42:30Z</time>
      </trkpt>
      <trkpt lat="49.63389" lon="4.97941">
        <ele>181.83</ele>
        <time>2020-06-19T14:42:45Z</time>
      </trkpt>
      <trkpt lat="49.63389" lon="4.97942">
        <ele>181.35</ele>
        <time>2020-06-19T14:42:46Z</time>
      </trkpt>
      <trkpt lat="49.63392" lon="4.97957">
        <ele>178.94</ele>
        <time>2020-06-19T14:42:59Z</time>
      </trkpt>
      <trkpt lat="49.63397" lon="4.97973">
        <ele>179.42</ele>
        <time>2020-06-19T14:43:11Z</time>
      </trkpt>
      <trkpt lat="49.63403" lon="4.97986">
        <ele>179.42</ele>
        <time>2020-06-19T14:43:25Z</time>
      </trkpt>
      <trkpt lat="49.63404" lon="4.97989">
        <ele>179.42</ele>
        <time>2020-06-19T14:43:27Z</time>
      </trkpt>
      <trkpt lat="49.63411" lon="4.98005">
        <ele>179.9</ele>
        <time>2020-06-19T14:43:41Z</time>
      </trkpt>
      <trkpt lat="49.63419" lon="4.98019">
        <ele>180.38</ele>
        <time>2020-06-19T14:43:54Z</time>
      </trkpt>
      <trkpt lat="49.63426" lon="4.98035">
        <ele>179.9</ele>
        <time>2020-06-19T14:44:08Z</time>
      </trkpt>
      <trkpt lat="49.6344" lon="4.98048">
        <ele>178.94</ele>
        <time>2020-06-19T14:44:23Z</time>
      </trkpt>
      <trkpt lat="49.63447" lon="4.98054">
        <ele>178.94</ele>
        <time>2020-06-19T14:44:36Z</time>
      </trkpt>
      <trkpt lat="49.63447" lon="4.98056">
        <ele>180.38</ele>
        <time>2020-06-19T14:44:53Z</time>
      </trkpt>
      <trkpt lat="49.63447" lon="4.98055">
        <ele>180.87</ele>
        <time>2020-06-19T14:44:59Z</time>
      </trkpt>
    </trkseg>
  </trk>
</gpx>